FJI810 NFFN-KLAX
Flight info
| Callsign | FJI810 |
|---|---|
| Flight time | 14h 28m |
| Altitude | 37000 |
| Route | ALPHA KABAR A579 IDEMU DCT 0500S17315W 00N169W 04N165W/N0487F390 08N160W 12N155W 16N150W 19N145W/N0481F410 22N140W 25N135W 28N130W 30N125W DCT FICKY GOATZ2 |
| Aircraft | A359/H-SDE2E3GHIJ3J4J5LM1ORWXY/LB1D1 |
Departure
| Time | 2026-04-23 09:42 |
|---|---|
| Airport | Nadi International Airport (NFFN) |
Arrival
| Time | 2026-04-24 00:11 |
|---|---|
| Airport | Los Angeles International Airport (KLAX) |
| Time | Latitude | Longitude | Altitude | Speed | Heading |
|---|---|---|---|---|---|
| 2026-04-23 09:31 | -17.75185 | 177.45006 | 53 ft | 0 kts | 104° |
| 2026-04-23 09:37 | -17.75184 | 177.44999 | 53 ft | 2 kts | 104° |
| 2026-04-23 09:37 | -17.75180 | 177.44982 | 53 ft | 2 kts | 104° |
| 2026-04-23 09:38 | -17.75177 | 177.44965 | 48 ft | 2 kts | 90° |
| 2026-04-23 09:38 | -17.75180 | 177.44948 | 48 ft | 2 kts | 53° |
| 2026-04-23 09:38 | -17.75193 | 177.44939 | 45 ft | 2 kts | 13° |
| 2026-04-23 09:38 | -17.75202 | 177.44937 | 45 ft | 0 kts | 13° |
| 2026-04-23 09:40 | -17.75199 | 177.44938 | 45 ft | 2 kts | 13° |
| 2026-04-23 09:40 | -17.75166 | 177.44947 | 46 ft | 7 kts | 15° |
| 2026-04-23 09:40 | -17.75116 | 177.44959 | 53 ft | 8 kts | 13° |
| 2026-04-23 09:40 | -17.75062 | 177.44959 | 51 ft | 7 kts | 332° |
| 2026-04-23 09:41 | -17.75037 | 177.44906 | 53 ft | 11 kts | 284° |
| 2026-04-23 09:41 | -17.75017 | 177.44815 | 53 ft | 14 kts | 282° |
| 2026-04-23 09:41 | -17.75018 | 177.44729 | 51 ft | 11 kts | 238° |
| 2026-04-23 09:41 | -17.75063 | 177.44687 | 53 ft | 0 kts | 218° |
| 2026-04-23 09:42 | -17.75084 | 177.44669 | 53 ft | 20 kts | 218° |
| 2026-04-23 09:42 | -17.75423 | 177.44397 | 49 ft | 102 kts | 217° |
| 2026-04-23 09:42 | -17.76188 | 177.43779 | 58 ft | 172 kts | 218° |
| 2026-04-23 09:42 | -17.77154 | 177.42984 | 727 ft | 183 kts | 218° |
| 2026-04-23 09:43 | -17.77870 | 177.41870 | 1488 ft | 196 kts | 255° |
| 2026-04-23 09:43 | -17.77748 | 177.40441 | 1736 ft | 205 kts | 291° |
| 2026-04-23 09:43 | -17.76973 | 177.39137 | 1880 ft | 218 kts | 310° |
| 2026-04-23 09:43 | -17.75714 | 177.38138 | 1941 ft | 236 kts | 329° |
| 2026-04-23 09:44 | -17.74474 | 177.36920 | 2085 ft | 254 kts | 313° |
| 2026-04-23 09:44 | -17.72986 | 177.35886 | 2318 ft | 262 kts | 346° |
| 2026-04-23 09:44 | -17.71228 | 177.35855 | 2744 ft | 260 kts | 18° |
| 2026-04-23 09:44 | -17.69607 | 177.36683 | 3284 ft | 257 kts | 36° |
| 2026-04-23 09:45 | -17.68125 | 177.37724 | 3771 ft | 258 kts | 36° |
| 2026-04-23 09:45 | -17.66613 | 177.38758 | 4246 ft | 261 kts | 34° |
| 2026-04-23 09:45 | -17.65069 | 177.39775 | 4721 ft | 263 kts | 33° |
| 2026-04-23 09:45 | -17.63533 | 177.40813 | 5196 ft | 264 kts | 35° |
| 2026-04-23 09:46 | -17.61989 | 177.41876 | 5637 ft | 267 kts | 34° |
| 2026-04-23 09:46 | -17.60426 | 177.42942 | 6071 ft | 269 kts | 34° |
| 2026-04-23 09:46 | -17.58844 | 177.44012 | 6503 ft | 272 kts | 34° |
| 2026-04-23 09:46 | -17.57269 | 177.45072 | 6922 ft | 273 kts | 34° |
| 2026-04-23 09:47 | -17.55662 | 177.46152 | 7341 ft | 275 kts | 34° |
| 2026-04-23 09:47 | -17.54042 | 177.47238 | 7750 ft | 278 kts | 33° |
| 2026-04-23 09:47 | -17.52407 | 177.48334 | 8169 ft | 280 kts | 33° |
| 2026-04-23 09:47 | -17.50761 | 177.49436 | 8595 ft | 282 kts | 33° |
| 2026-04-23 09:48 | -17.49102 | 177.50546 | 9036 ft | 284 kts | 33° |
| 2026-04-23 09:48 | -17.47437 | 177.51661 | 9483 ft | 285 kts | 33° |
| 2026-04-23 09:48 | -17.45780 | 177.52769 | 9905 ft | 287 kts | 33° |
| 2026-04-23 09:48 | -17.44085 | 177.53903 | 10218 ft | 293 kts | 33° |
| 2026-04-23 09:49 | -17.42335 | 177.55072 | 10388 ft | 304 kts | 33° |
| 2026-04-23 09:49 | -17.40525 | 177.56281 | 10553 ft | 314 kts | 32° |
| 2026-04-23 09:49 | -17.38652 | 177.57533 | 10718 ft | 324 kts | 32° |
| 2026-04-23 09:49 | -17.36724 | 177.58821 | 10870 ft | 334 kts | 32° |
| 2026-04-23 09:50 | -17.34743 | 177.60144 | 11015 ft | 343 kts | 32° |
| 2026-04-23 09:50 | -17.32707 | 177.61503 | 11157 ft | 351 kts | 32° |
| 2026-04-23 09:50 | -17.30650 | 177.62876 | 11294 ft | 359 kts | 32° |
| 2026-04-23 09:50 | -17.28526 | 177.64294 | 11428 ft | 366 kts | 32° |
| 2026-04-23 09:51 | -17.26357 | 177.65741 | 11585 ft | 372 kts | 32° |
| 2026-04-23 09:51 | -17.24170 | 177.67200 | 11839 ft | 375 kts | 32° |
| 2026-04-23 09:51 | -17.21965 | 177.68670 | 12115 ft | 376 kts | 32° |
| 2026-04-23 09:51 | -17.19756 | 177.70143 | 12378 ft | 378 kts | 32° |
| 2026-04-23 09:52 | -17.17524 | 177.71631 | 12648 ft | 380 kts | 32° |
| 2026-04-23 09:52 | -17.15291 | 177.73118 | 12929 ft | 381 kts | 32° |
| 2026-04-23 09:52 | -17.13053 | 177.74609 | 13202 ft | 382 kts | 32° |
| 2026-04-23 09:52 | -17.10836 | 177.76085 | 13463 ft | 384 kts | 31° |
| 2026-04-23 09:53 | -17.08581 | 177.77586 | 13744 ft | 385 kts | 31° |
| 2026-04-23 09:53 | -17.06318 | 177.79092 | 13979 ft | 386 kts | 31° |
| 2026-04-23 09:53 | -17.04048 | 177.80603 | 14209 ft | 388 kts | 31° |
| 2026-04-23 09:53 | -17.01766 | 177.82120 | 14438 ft | 389 kts | 31° |
| 2026-04-23 09:54 | -16.99478 | 177.83642 | 14662 ft | 391 kts | 31° |
| 2026-04-23 09:54 | -16.97181 | 177.85170 | 14903 ft | 392 kts | 31° |
| 2026-04-23 09:54 | -16.94908 | 177.86679 | 15124 ft | 394 kts | 31° |
| 2026-04-23 09:54 | -16.92597 | 177.88214 | 15376 ft | 394 kts | 31° |
| 2026-04-23 09:55 | -16.90277 | 177.89755 | 15603 ft | 396 kts | 31° |
| 2026-04-23 09:55 | -16.87943 | 177.91304 | 15821 ft | 398 kts | 31° |
| 2026-04-23 09:55 | -16.85600 | 177.92859 | 16050 ft | 400 kts | 31° |
| 2026-04-23 09:55 | -16.83250 | 177.94419 | 16266 ft | 401 kts | 31° |
| 2026-04-23 09:56 | -16.80889 | 177.95985 | 16497 ft | 403 kts | 31° |
| 2026-04-23 09:56 | -16.78518 | 177.97557 | 16725 ft | 405 kts | 31° |
| 2026-04-23 09:56 | -16.76135 | 177.99137 | 16933 ft | 406 kts | 31° |
| 2026-04-23 09:56 | -16.73774 | 178.00702 | 17163 ft | 408 kts | 31° |
| 2026-04-23 09:57 | -16.71378 | 178.02289 | 17402 ft | 409 kts | 31° |
| 2026-04-23 09:57 | -16.68970 | 178.03884 | 17618 ft | 411 kts | 31° |
| 2026-04-23 09:57 | -16.66553 | 178.05485 | 17830 ft | 412 kts | 31° |
| 2026-04-23 09:57 | -16.64123 | 178.07093 | 18050 ft | 414 kts | 31° |
| 2026-04-23 09:58 | -16.61689 | 178.08704 | 18257 ft | 416 kts | 31° |
| 2026-04-23 09:58 | -16.59241 | 178.10323 | 18450 ft | 417 kts | 31° |
| 2026-04-23 09:58 | -16.56814 | 178.11928 | 18627 ft | 419 kts | 31° |
| 2026-04-23 09:58 | -16.54353 | 178.13556 | 18812 ft | 420 kts | 31° |
| 2026-04-23 09:59 | -16.51882 | 178.15190 | 19009 ft | 421 kts | 31° |
| 2026-04-23 09:59 | -16.49404 | 178.16826 | 19184 ft | 423 kts | 31° |
| 2026-04-23 09:59 | -16.46916 | 178.18470 | 19369 ft | 424 kts | 31° |
| 2026-04-23 09:59 | -16.44420 | 178.20119 | 19557 ft | 425 kts | 31° |
| 2026-04-23 10:00 | -16.41920 | 178.21770 | 19736 ft | 427 kts | 31° |
| 2026-04-23 10:00 | -16.39408 | 178.23427 | 19895 ft | 428 kts | 31° |
| 2026-04-23 10:00 | -16.36923 | 178.25066 | 20081 ft | 429 kts | 31° |
| 2026-04-23 10:00 | -16.34400 | 178.26731 | 20266 ft | 430 kts | 31° |
| 2026-04-23 10:01 | -16.31866 | 178.28401 | 20448 ft | 431 kts | 31° |
| 2026-04-23 10:01 | -16.29332 | 178.30071 | 20623 ft | 433 kts | 31° |
| 2026-04-23 10:01 | -16.26785 | 178.31750 | 20794 ft | 434 kts | 31° |
| 2026-04-23 10:01 | -16.24229 | 178.33434 | 20959 ft | 435 kts | 31° |
| 2026-04-23 10:02 | -16.21673 | 178.35124 | 21133 ft | 436 kts | 31° |
| 2026-04-23 10:02 | -16.19136 | 178.36787 | 21300 ft | 437 kts | 31° |
| 2026-04-23 10:02 | -16.16556 | 178.38469 | 21472 ft | 438 kts | 31° |
| 2026-04-23 10:02 | -16.13965 | 178.40156 | 21646 ft | 439 kts | 31° |
| 2026-04-23 10:03 | -16.11369 | 178.41846 | 21805 ft | 441 kts | 31° |
| 2026-04-23 10:03 | -16.08772 | 178.43537 | 21972 ft | 442 kts | 31° |
| 2026-04-23 10:03 | -16.06163 | 178.45239 | 22141 ft | 443 kts | 31° |
| 2026-04-23 10:03 | -16.03549 | 178.46943 | 22295 ft | 444 kts | 31° |
| 2026-04-23 10:04 | -16.01818 | 178.48072 | 22404 ft | 445 kts | 30° |
| 2026-04-23 10:04 | -15.98337 | 178.50341 | 22610 ft | 446 kts | 30° |
| 2026-04-23 10:04 | -15.95701 | 178.52060 | 22770 ft | 448 kts | 30° |
| 2026-04-23 10:04 | -15.93065 | 178.53779 | 22915 ft | 449 kts | 30° |
| 2026-04-23 10:05 | -15.90414 | 178.55507 | 23058 ft | 450 kts | 30° |
| 2026-04-23 10:05 | -15.87757 | 178.57236 | 23218 ft | 451 kts | 30° |
| 2026-04-23 10:05 | -15.85095 | 178.58969 | 23383 ft | 452 kts | 30° |
| 2026-04-23 10:05 | -15.82431 | 178.60703 | 23538 ft | 453 kts | 30° |
| 2026-04-23 10:06 | -15.79796 | 178.62419 | 23662 ft | 454 kts | 30° |
| 2026-04-23 10:06 | -15.77117 | 178.64162 | 23775 ft | 455 kts | 30° |
| 2026-04-23 10:06 | -15.74437 | 178.65904 | 23926 ft | 455 kts | 30° |
| 2026-04-23 10:06 | -15.71755 | 178.67649 | 24056 ft | 455 kts | 30° |
| 2026-04-23 10:07 | -15.69066 | 178.69397 | 24187 ft | 456 kts | 30° |
| 2026-04-23 10:07 | -15.67286 | 178.70554 | 24268 ft | 457 kts | 30° |
| 2026-04-23 10:07 | -15.63685 | 178.72896 | 24454 ft | 457 kts | 30° |
| 2026-04-23 10:07 | -15.61899 | 178.74055 | 24533 ft | 458 kts | 30° |
| 2026-04-23 10:08 | -15.59196 | 178.75812 | 24652 ft | 458 kts | 30° |
| 2026-04-23 10:08 | -15.55610 | 178.78136 | 24793 ft | 460 kts | 30° |
| 2026-04-23 10:08 | -15.52894 | 178.79896 | 24920 ft | 460 kts | 30° |
| 2026-04-23 10:09 | -15.47457 | 178.83420 | 25155 ft | 462 kts | 30° |
| 2026-04-23 10:09 | -15.45652 | 178.84591 | 25235 ft | 462 kts | 30° |
| 2026-04-23 10:09 | -15.42921 | 178.86361 | 25346 ft | 463 kts | 30° |
| 2026-04-23 10:09 | -15.40185 | 178.88134 | 25468 ft | 464 kts | 30° |
| 2026-04-23 10:10 | -15.36560 | 178.90483 | 25627 ft | 465 kts | 30° |
| 2026-04-23 10:10 | -15.34706 | 178.91683 | 25703 ft | 465 kts | 30° |
| 2026-04-23 10:10 | -15.31957 | 178.93462 | 25805 ft | 466 kts | 30° |
| 2026-04-23 10:10 | -15.29240 | 178.95219 | 25913 ft | 467 kts | 30° |
| 2026-04-23 10:11 | -15.26481 | 178.97003 | 26029 ft | 468 kts | 30° |
| 2026-04-23 10:11 | -15.23725 | 178.98796 | 26143 ft | 468 kts | 30° |
| 2026-04-23 10:11 | -15.20963 | 179.00592 | 26268 ft | 469 kts | 30° |
| 2026-04-23 10:11 | -15.18193 | 179.02391 | 26378 ft | 470 kts | 30° |
| 2026-04-23 10:12 | -15.15421 | 179.04190 | 26478 ft | 471 kts | 30° |
| 2026-04-23 10:12 | -15.12645 | 179.05992 | 26594 ft | 472 kts | 30° |
| 2026-04-23 10:12 | -15.09864 | 179.07795 | 26710 ft | 472 kts | 30° |
| 2026-04-23 10:12 | -15.07116 | 179.09578 | 26807 ft | 473 kts | 30° |
| 2026-04-23 10:13 | -15.04322 | 179.11389 | 26940 ft | 474 kts | 30° |
| 2026-04-23 10:13 | -15.01529 | 179.13200 | 27041 ft | 474 kts | 31° |
| 2026-04-23 10:13 | -14.98731 | 179.15014 | 27140 ft | 475 kts | 30° |
| 2026-04-23 10:13 | -14.95924 | 179.16832 | 27249 ft | 476 kts | 30° |
| 2026-04-23 10:14 | -14.93114 | 179.18651 | 27364 ft | 477 kts | 31° |
| 2026-04-23 10:14 | -14.89387 | 179.21063 | 27490 ft | 478 kts | 30° |
| 2026-04-23 10:14 | -14.87482 | 179.22296 | 27553 ft | 479 kts | 30° |
| 2026-04-23 10:14 | -14.84699 | 179.24097 | 27658 ft | 479 kts | 31° |
| 2026-04-23 10:15 | -14.80911 | 179.26547 | 27793 ft | 480 kts | 31° |
| 2026-04-23 10:15 | -14.79034 | 179.27762 | 27866 ft | 481 kts | 31° |
| 2026-04-23 10:15 | -14.76192 | 179.29600 | 27964 ft | 482 kts | 31° |
| 2026-04-23 10:15 | -14.73350 | 179.31436 | 28061 ft | 483 kts | 31° |
| 2026-04-23 10:16 | -14.67645 | 179.35118 | 28260 ft | 484 kts | 31° |
| 2026-04-23 10:16 | -14.61920 | 179.38812 | 28441 ft | 486 kts | 31° |
| 2026-04-23 10:17 | -14.56224 | 179.42486 | 28625 ft | 487 kts | 31° |
| 2026-04-23 10:17 | -14.50465 | 179.46202 | 28779 ft | 489 kts | 31° |
| 2026-04-23 10:18 | -14.44686 | 179.49925 | 28947 ft | 490 kts | 31° |
| 2026-04-23 10:18 | -14.38894 | 179.53657 | 29113 ft | 492 kts | 31° |
| 2026-04-23 10:19 | -14.33118 | 179.57373 | 29251 ft | 493 kts | 31° |
| 2026-04-23 10:19 | -14.27297 | 179.61116 | 29406 ft | 494 kts | 31° |
| 2026-04-23 10:20 | -14.21450 | 179.64873 | 29567 ft | 495 kts | 31° |
| 2026-04-23 10:20 | -14.17579 | 179.67359 | 29673 ft | 496 kts | 31° |
| 2026-04-23 10:20 | -14.15598 | 179.68632 | 29712 ft | 497 kts | 31° |
| 2026-04-23 10:21 | -14.09769 | 179.72376 | 29871 ft | 497 kts | 31° |
| 2026-04-23 10:21 | -14.03894 | 179.76146 | 30013 ft | 498 kts | 31° |
| 2026-04-23 10:22 | -13.98000 | 179.79924 | 30146 ft | 499 kts | 31° |
| 2026-04-23 10:22 | -13.92102 | 179.83702 | 30277 ft | 500 kts | 31° |
| 2026-04-23 10:23 | -13.86233 | 179.87459 | 30401 ft | 500 kts | 31° |
| 2026-04-23 10:23 | -13.80316 | 179.91247 | 30527 ft | 501 kts | 31° |
| 2026-04-23 10:24 | -13.74400 | 179.95031 | 30732 ft | 500 kts | 31° |
| 2026-04-23 10:24 | -13.68495 | 179.98805 | 30930 ft | 499 kts | 31° |
| 2026-04-23 10:25 | -13.65547 | -179.99312 | 31031 ft | 499 kts | 31° |
| 2026-04-23 10:25 | -13.62639 | -179.97454 | 31132 ft | 499 kts | 31° |
| 2026-04-23 10:25 | -13.59693 | -179.95572 | 31243 ft | 498 kts | 31° |
| 2026-04-23 10:25 | -13.56748 | -179.93693 | 31336 ft | 498 kts | 31° |
| 2026-04-23 10:26 | -13.53804 | -179.91814 | 31440 ft | 498 kts | 31° |
| 2026-04-23 10:26 | -13.50861 | -179.89937 | 31557 ft | 498 kts | 31° |
| 2026-04-23 10:26 | -13.47924 | -179.88064 | 31666 ft | 497 kts | 31° |
| 2026-04-23 10:26 | -13.44982 | -179.86188 | 31751 ft | 497 kts | 31° |
| 2026-04-23 10:27 | -13.39141 | -179.82465 | 31940 ft | 497 kts | 31° |
| 2026-04-23 10:27 | -13.33262 | -179.78720 | 32132 ft | 497 kts | 31° |
| 2026-04-23 10:28 | -13.30322 | -179.76848 | 32237 ft | 497 kts | 31° |
| 2026-04-23 10:28 | -13.27384 | -179.74979 | 32335 ft | 497 kts | 31° |
| 2026-04-23 10:28 | -13.21499 | -179.71235 | 32510 ft | 498 kts | 31° |
| 2026-04-23 10:29 | -13.15655 | -179.67519 | 32704 ft | 498 kts | 31° |
| 2026-04-23 10:29 | -13.09766 | -179.63776 | 32901 ft | 498 kts | 32° |
| 2026-04-23 10:30 | -13.06821 | -179.61906 | 33003 ft | 498 kts | 32° |
| 2026-04-23 10:30 | -13.03876 | -179.60036 | 33127 ft | 497 kts | 32° |
| 2026-04-23 10:30 | -12.98026 | -179.56322 | 33305 ft | 498 kts | 32° |
| 2026-04-23 10:31 | -12.95079 | -179.54452 | 33414 ft | 498 kts | 32° |
| 2026-04-23 10:31 | -12.92135 | -179.52585 | 33538 ft | 498 kts | 32° |
| 2026-04-23 10:31 | -12.89186 | -179.50715 | 33647 ft | 498 kts | 32° |
| 2026-04-23 10:31 | -12.86237 | -179.48846 | 33739 ft | 499 kts | 32° |
| 2026-04-23 10:32 | -12.83290 | -179.46978 | 33859 ft | 499 kts | 32° |
| 2026-04-23 10:32 | -12.80339 | -179.45108 | 33984 ft | 498 kts | 32° |
| 2026-04-23 10:32 | -12.77390 | -179.43240 | 34100 ft | 498 kts | 32° |
| 2026-04-23 10:32 | -12.74443 | -179.41374 | 34191 ft | 498 kts | 32° |
| 2026-04-23 10:33 | -12.71533 | -179.39532 | 34309 ft | 498 kts | 32° |
| 2026-04-23 10:33 | -12.68589 | -179.37669 | 34460 ft | 497 kts | 32° |
| 2026-04-23 10:33 | -12.65647 | -179.35807 | 34571 ft | 497 kts | 32° |
| 2026-04-23 10:33 | -12.62706 | -179.33947 | 34690 ft | 497 kts | 32° |
| 2026-04-23 10:34 | -12.59762 | -179.32086 | 34814 ft | 497 kts | 32° |
| 2026-04-23 10:34 | -12.56824 | -179.30228 | 34943 ft | 497 kts | 32° |
| 2026-04-23 10:34 | -12.53880 | -179.28368 | 35072 ft | 497 kts | 32° |
| 2026-04-23 10:34 | -12.50943 | -179.26512 | 35194 ft | 497 kts | 32° |
| 2026-04-23 10:35 | -12.48044 | -179.24680 | 35317 ft | 496 kts | 32° |
| 2026-04-23 10:35 | -12.45103 | -179.22824 | 35462 ft | 496 kts | 32° |
| 2026-04-23 10:35 | -12.42172 | -179.20973 | 35607 ft | 496 kts | 32° |
| 2026-04-23 10:35 | -12.39234 | -179.19119 | 35758 ft | 496 kts | 32° |
| 2026-04-23 10:36 | -12.36300 | -179.17267 | 35897 ft | 496 kts | 32° |
| 2026-04-23 10:36 | -12.33368 | -179.15417 | 36033 ft | 496 kts | 32° |
| 2026-04-23 10:36 | -12.30430 | -179.13564 | 36177 ft | 495 kts | 32° |
| 2026-04-23 10:36 | -12.27502 | -179.11718 | 36323 ft | 495 kts | 32° |
| 2026-04-23 10:37 | -12.24610 | -179.09895 | 36479 ft | 494 kts | 32° |
| 2026-04-23 10:37 | -12.21681 | -179.08049 | 36616 ft | 494 kts | 32° |
| 2026-04-23 10:37 | -12.18756 | -179.06206 | 36775 ft | 494 kts | 32° |
| 2026-04-23 10:37 | -12.15832 | -179.04365 | 36894 ft | 494 kts | 32° |
| 2026-04-23 10:38 | -12.09950 | -179.00662 | 36962 ft | 499 kts | 32° |
| 2026-04-23 10:38 | -12.04022 | -178.96931 | 36961 ft | 500 kts | 32° |
| 2026-04-23 10:39 | -11.98139 | -178.93232 | 36962 ft | 500 kts | 32° |
| 2026-04-23 10:39 | -11.92207 | -178.89503 | 36960 ft | 501 kts | 32° |
| 2026-04-23 10:40 | -11.86276 | -178.85776 | 36961 ft | 501 kts | 32° |
| 2026-04-23 10:40 | -11.80371 | -178.82069 | 36961 ft | 502 kts | 32° |
| 2026-04-23 10:41 | -11.74420 | -178.78333 | 36960 ft | 503 kts | 32° |
| 2026-04-23 10:41 | -11.68455 | -178.74591 | 36962 ft | 503 kts | 32° |
| 2026-04-23 10:42 | -11.62487 | -178.70849 | 36961 ft | 504 kts | 32° |
| 2026-04-23 10:42 | -11.56550 | -178.67129 | 36958 ft | 504 kts | 32° |
| 2026-04-23 10:43 | -11.50580 | -178.63389 | 36959 ft | 503 kts | 32° |
| 2026-04-23 10:43 | -11.44611 | -178.59651 | 36959 ft | 503 kts | 32° |
| 2026-04-23 10:44 | -11.38648 | -178.55919 | 36961 ft | 503 kts | 32° |
| 2026-04-23 10:44 | -11.32734 | -178.52220 | 36957 ft | 502 kts | 32° |
| 2026-04-23 10:45 | -11.26801 | -178.48513 | 36954 ft | 497 kts | 32° |
| 2026-04-23 10:45 | -11.20933 | -178.44848 | 36955 ft | 493 kts | 32° |
| 2026-04-23 10:46 | -11.15093 | -178.41200 | 36956 ft | 493 kts | 32° |
| 2026-04-23 10:46 | -11.09291 | -178.37577 | 36954 ft | 493 kts | 33° |
| 2026-04-23 10:47 | -11.03439 | -178.33926 | 36952 ft | 493 kts | 33° |
| 2026-04-23 10:47 | -10.97589 | -178.30279 | 36954 ft | 493 kts | 33° |
| 2026-04-23 10:48 | -10.91739 | -178.26631 | 36956 ft | 493 kts | 33° |
| 2026-04-23 10:48 | -10.85929 | -178.23010 | 36955 ft | 493 kts | 33° |
| 2026-04-23 10:49 | -10.80084 | -178.19369 | 36957 ft | 493 kts | 33° |
| 2026-04-23 10:49 | -10.74229 | -178.15726 | 36954 ft | 493 kts | 33° |
| 2026-04-23 10:50 | -10.68420 | -178.12112 | 36955 ft | 493 kts | 33° |
| 2026-04-23 10:50 | -10.62569 | -178.08472 | 36956 ft | 493 kts | 33° |
| 2026-04-23 10:51 | -10.56721 | -178.04838 | 36956 ft | 493 kts | 33° |
| 2026-04-23 10:51 | -10.50870 | -178.01204 | 36953 ft | 493 kts | 33° |
| 2026-04-23 10:52 | -10.45057 | -177.97594 | 36952 ft | 493 kts | 33° |
| 2026-04-23 10:52 | -10.39206 | -177.93961 | 36953 ft | 493 kts | 33° |
| 2026-04-23 10:53 | -10.33358 | -177.90333 | 36954 ft | 493 kts | 33° |
| 2026-04-23 10:53 | -10.27505 | -177.86701 | 36946 ft | 493 kts | 33° |
| 2026-04-23 10:54 | -10.21687 | -177.83096 | 36950 ft | 493 kts | 33° |
| 2026-04-23 10:54 | -10.15832 | -177.79469 | 36949 ft | 493 kts | 33° |
| 2026-04-23 10:55 | -10.09971 | -177.75838 | 36950 ft | 493 kts | 33° |
| 2026-04-23 10:55 | -10.04113 | -177.72210 | 36950 ft | 494 kts | 33° |
| 2026-04-23 10:56 | -9.98531 | -177.68265 | 36956 ft | 491 kts | 41° |
| 2026-04-23 10:56 | -9.93374 | -177.63727 | 36951 ft | 491 kts | 43° |
| 2026-04-23 10:57 | -9.88286 | -177.59103 | 36951 ft | 491 kts | 43° |
| 2026-04-23 10:57 | -9.83201 | -177.54478 | 36952 ft | 491 kts | 43° |
| 2026-04-23 10:58 | -9.78107 | -177.49859 | 36949 ft | 491 kts | 43° |
| 2026-04-23 10:58 | -9.73043 | -177.45284 | 36948 ft | 491 kts | 43° |
| 2026-04-23 10:59 | -9.67939 | -177.40678 | 36948 ft | 491 kts | 43° |
| 2026-04-23 10:59 | -9.62839 | -177.36078 | 36948 ft | 491 kts | 43° |
| 2026-04-23 11:00 | -9.57738 | -177.31477 | 36943 ft | 491 kts | 43° |
| 2026-04-23 11:00 | -9.52676 | -177.26910 | 36944 ft | 491 kts | 43° |
| 2026-04-23 11:01 | -9.47571 | -177.22307 | 36945 ft | 491 kts | 43° |
| 2026-04-23 11:01 | -9.42465 | -177.17708 | 36943 ft | 491 kts | 43° |
| 2026-04-23 11:02 | -9.37360 | -177.13109 | 36946 ft | 491 kts | 43° |
| 2026-04-23 11:02 | -9.32289 | -177.08543 | 36943 ft | 491 kts | 43° |
| 2026-04-23 11:03 | -9.27181 | -177.03945 | 36941 ft | 491 kts | 43° |
| 2026-04-23 11:03 | -9.22066 | -176.99345 | 36942 ft | 492 kts | 43° |
| 2026-04-23 11:04 | -9.16958 | -176.94751 | 36940 ft | 492 kts | 43° |
| 2026-04-23 11:04 | -9.11881 | -176.90186 | 36939 ft | 492 kts | 43° |
| 2026-04-23 11:05 | -9.06764 | -176.85588 | 36940 ft | 492 kts | 43° |
| 2026-04-23 11:05 | -9.01649 | -176.80992 | 36935 ft | 492 kts | 43° |
| 2026-04-23 11:06 | -8.94008 | -176.74133 | 36938 ft | 492 kts | 43° |
| 2026-04-23 11:07 | -8.88890 | -176.69541 | 36941 ft | 492 kts | 43° |
| 2026-04-23 11:07 | -8.83767 | -176.64947 | 36936 ft | 492 kts | 43° |
| 2026-04-23 11:08 | -8.78679 | -176.60385 | 36938 ft | 492 kts | 43° |
| 2026-04-23 11:08 | -8.73561 | -176.55797 | 36937 ft | 492 kts | 43° |
| 2026-04-23 11:09 | -8.68436 | -176.51207 | 36935 ft | 492 kts | 43° |
| 2026-04-23 11:09 | -8.63311 | -176.46618 | 36937 ft | 492 kts | 43° |
| 2026-04-23 11:10 | -8.58184 | -176.42027 | 36935 ft | 492 kts | 43° |
| 2026-04-23 11:10 | -8.53091 | -176.37470 | 36935 ft | 492 kts | 43° |
| 2026-04-23 11:11 | -8.47960 | -176.32881 | 36933 ft | 493 kts | 43° |
| 2026-04-23 11:11 | -8.42829 | -176.28291 | 36936 ft | 493 kts | 43° |
| 2026-04-23 11:12 | -8.37695 | -176.23701 | 36935 ft | 493 kts | 43° |
| 2026-04-23 11:12 | -8.32594 | -176.19142 | 36935 ft | 493 kts | 43° |
| 2026-04-23 11:13 | -8.27459 | -176.14556 | 36930 ft | 493 kts | 43° |
| 2026-04-23 11:13 | -8.22321 | -176.09969 | 36930 ft | 493 kts | 43° |
| 2026-04-23 11:14 | -8.17184 | -176.05383 | 36930 ft | 493 kts | 43° |
| 2026-04-23 11:14 | -8.12078 | -176.00828 | 36927 ft | 493 kts | 43° |
| 2026-04-23 11:15 | -8.06937 | -175.96242 | 36929 ft | 493 kts | 43° |
| 2026-04-23 11:15 | -8.01801 | -175.91661 | 36930 ft | 493 kts | 43° |
| 2026-04-23 11:16 | -7.96689 | -175.87106 | 36930 ft | 493 kts | 43° |
| 2026-04-23 11:16 | -7.91547 | -175.82524 | 36929 ft | 493 kts | 43° |
| 2026-04-23 11:17 | -7.86400 | -175.77940 | 36929 ft | 494 kts | 43° |
| 2026-04-23 11:17 | -7.81251 | -175.73355 | 36927 ft | 494 kts | 43° |
| 2026-04-23 11:18 | -7.76137 | -175.68799 | 36925 ft | 494 kts | 43° |
| 2026-04-23 11:18 | -7.70988 | -175.64217 | 36928 ft | 494 kts | 43° |
| 2026-04-23 11:19 | -7.65836 | -175.59637 | 36927 ft | 494 kts | 43° |
| 2026-04-23 11:19 | -7.60681 | -175.55053 | 36925 ft | 494 kts | 43° |
| 2026-04-23 11:20 | -7.55564 | -175.50505 | 36922 ft | 494 kts | 43° |
| 2026-04-23 11:20 | -7.50412 | -175.45927 | 36921 ft | 494 kts | 43° |
| 2026-04-23 11:21 | -7.45256 | -175.41347 | 36919 ft | 494 kts | 43° |
| 2026-04-23 11:21 | -7.40135 | -175.36799 | 36923 ft | 494 kts | 43° |
| 2026-04-23 11:22 | -7.34979 | -175.32222 | 36922 ft | 494 kts | 43° |
| 2026-04-23 11:22 | -7.29823 | -175.27646 | 36922 ft | 494 kts | 43° |
| 2026-04-23 11:23 | -7.24668 | -175.23072 | 36918 ft | 494 kts | 43° |
| 2026-04-23 11:23 | -7.19512 | -175.18499 | 36920 ft | 494 kts | 43° |
| 2026-04-23 11:24 | -7.14390 | -175.13959 | 36919 ft | 494 kts | 43° |
| 2026-04-23 11:24 | -7.09231 | -175.09386 | 36920 ft | 494 kts | 43° |
| 2026-04-23 11:25 | -7.04073 | -175.04815 | 36919 ft | 494 kts | 43° |
| 2026-04-23 11:25 | -6.98917 | -175.00248 | 36919 ft | 494 kts | 43° |
| 2026-04-23 11:26 | -6.93798 | -174.95715 | 36918 ft | 494 kts | 43° |
| 2026-04-23 11:26 | -6.88636 | -174.91145 | 36919 ft | 494 kts | 43° |
| 2026-04-23 11:27 | -6.83478 | -174.86580 | 36918 ft | 494 kts | 43° |
| 2026-04-23 11:27 | -6.78321 | -174.82018 | 36917 ft | 494 kts | 43° |
| 2026-04-23 11:28 | -6.73196 | -174.77485 | 36922 ft | 494 kts | 43° |
| 2026-04-23 11:28 | -6.68036 | -174.72922 | 36919 ft | 494 kts | 43° |
| 2026-04-23 11:29 | -6.62874 | -174.68359 | 36918 ft | 494 kts | 43° |
| 2026-04-23 11:29 | -6.57745 | -174.63826 | 36920 ft | 494 kts | 43° |
| 2026-04-23 11:30 | -6.52581 | -174.59264 | 36913 ft | 494 kts | 43° |
| 2026-04-23 11:30 | -6.47421 | -174.54707 | 36917 ft | 494 kts | 43° |
| 2026-04-23 11:31 | -6.42254 | -174.50145 | 36917 ft | 494 kts | 43° |
| 2026-04-23 11:31 | -6.37123 | -174.45615 | 36915 ft | 494 kts | 43° |
| 2026-04-23 11:32 | -6.31958 | -174.41057 | 36918 ft | 494 kts | 43° |
| 2026-04-23 11:32 | -6.26788 | -174.36497 | 36913 ft | 494 kts | 43° |
| 2026-04-23 11:33 | -6.21622 | -174.31940 | 36919 ft | 494 kts | 43° |
| 2026-04-23 11:33 | -6.16482 | -174.27409 | 36915 ft | 494 kts | 43° |
| 2026-04-23 11:34 | -6.11313 | -174.22851 | 36917 ft | 494 kts | 43° |
| 2026-04-23 11:34 | -6.06142 | -174.18295 | 36918 ft | 495 kts | 43° |
| 2026-04-23 11:35 | -6.01003 | -174.13767 | 36919 ft | 495 kts | 43° |
| 2026-04-23 11:35 | -5.95827 | -174.09208 | 36919 ft | 495 kts | 43° |
| 2026-04-23 11:36 | -5.90651 | -174.04650 | 36917 ft | 495 kts | 43° |
| 2026-04-23 11:36 | -5.85474 | -174.00092 | 36917 ft | 495 kts | 43° |
| 2026-04-23 11:37 | -5.80330 | -173.95565 | 36914 ft | 495 kts | 43° |
| 2026-04-23 11:37 | -5.75154 | -173.91011 | 36918 ft | 495 kts | 43° |
| 2026-04-23 11:38 | -5.69971 | -173.86452 | 36912 ft | 495 kts | 43° |
| 2026-04-23 11:38 | -5.64790 | -173.81895 | 36918 ft | 495 kts | 43° |
| 2026-04-23 11:39 | -5.59642 | -173.77369 | 36919 ft | 495 kts | 43° |
| 2026-04-23 11:39 | -5.54459 | -173.72813 | 36916 ft | 495 kts | 43° |
| 2026-04-23 11:40 | -5.49273 | -173.68255 | 36912 ft | 495 kts | 43° |
| 2026-04-23 11:40 | -5.44092 | -173.63702 | 36915 ft | 496 kts | 43° |
| 2026-04-23 11:41 | -5.38936 | -173.59174 | 36915 ft | 495 kts | 43° |
| 2026-04-23 11:41 | -5.33715 | -173.54588 | 36910 ft | 503 kts | 43° |
| 2026-04-23 11:42 | -5.28426 | -173.49943 | 36911 ft | 508 kts | 43° |
| 2026-04-23 11:42 | -5.23125 | -173.45293 | 36913 ft | 510 kts | 43° |
| 2026-04-23 11:43 | -5.17774 | -173.40600 | 36914 ft | 512 kts | 43° |
| 2026-04-23 11:43 | -5.12416 | -173.35897 | 36914 ft | 512 kts | 43° |
| 2026-04-23 11:44 | -5.07053 | -173.31191 | 36910 ft | 512 kts | 43° |
| 2026-04-23 11:44 | -5.01686 | -173.26487 | 36913 ft | 512 kts | 43° |
| 2026-04-23 11:45 | -4.96343 | -173.21834 | 36913 ft | 512 kts | 42° |
| 2026-04-23 11:45 | -4.90918 | -173.17205 | 36914 ft | 512 kts | 42° |
| 2026-04-23 11:46 | -4.85485 | -173.12578 | 36914 ft | 512 kts | 42° |
| 2026-04-23 11:46 | -4.80064 | -173.07948 | 36912 ft | 512 kts | 42° |
| 2026-04-23 11:47 | -4.74681 | -173.03348 | 36912 ft | 512 kts | 42° |
| 2026-04-23 11:47 | -4.69264 | -172.98718 | 36911 ft | 512 kts | 42° |
| 2026-04-23 11:48 | -4.63851 | -172.94093 | 36913 ft | 511 kts | 42° |
| 2026-04-23 11:48 | -4.58476 | -172.89498 | 36910 ft | 511 kts | 42° |
| 2026-04-23 11:49 | -4.53058 | -172.84868 | 36912 ft | 512 kts | 42° |
| 2026-04-23 11:49 | -4.47644 | -172.80243 | 36911 ft | 512 kts | 42° |
| 2026-04-23 11:50 | -4.42227 | -172.75618 | 36911 ft | 512 kts | 41° |
| 2026-04-23 11:50 | -4.36843 | -172.71021 | 36911 ft | 512 kts | 42° |
| 2026-04-23 11:51 | -4.31425 | -172.66395 | 36911 ft | 512 kts | 42° |
| 2026-04-23 11:51 | -4.26011 | -172.61772 | 36912 ft | 512 kts | 42° |
| 2026-04-23 11:52 | -4.20593 | -172.57148 | 36911 ft | 512 kts | 42° |
| 2026-04-23 11:52 | -4.15212 | -172.52558 | 36912 ft | 512 kts | 42° |
| 2026-04-23 11:53 | -4.09789 | -172.47934 | 36909 ft | 512 kts | 42° |
| 2026-04-23 11:53 | -4.04364 | -172.43307 | 36910 ft | 512 kts | 42° |
| 2026-04-23 11:54 | -3.98940 | -172.38680 | 36909 ft | 512 kts | 41° |
| 2026-04-23 11:54 | -3.93550 | -172.34084 | 36908 ft | 512 kts | 41° |
| 2026-04-23 11:55 | -3.88122 | -172.29456 | 36908 ft | 513 kts | 41° |
| 2026-04-23 11:55 | -3.82740 | -172.24871 | 36915 ft | 501 kts | 41° |
| 2026-04-23 11:56 | -3.77503 | -172.20410 | 36914 ft | 496 kts | 41° |
| 2026-04-23 11:56 | -3.72254 | -172.15937 | 36907 ft | 496 kts | 41° |
| 2026-04-23 11:57 | -3.66996 | -172.11456 | 36906 ft | 497 kts | 41° |
| 2026-04-23 11:57 | -3.61726 | -172.06966 | 36911 ft | 498 kts | 41° |
| 2026-04-23 11:58 | -3.56482 | -172.02502 | 36908 ft | 499 kts | 41° |
| 2026-04-23 11:58 | -3.51195 | -171.98000 | 36906 ft | 499 kts | 41° |
| 2026-04-23 11:59 | -3.45900 | -171.93492 | 36908 ft | 500 kts | 40° |
| 2026-04-23 11:59 | -3.40591 | -171.88973 | 36904 ft | 501 kts | 40° |
| 2026-04-23 12:00 | -3.35306 | -171.84476 | 36904 ft | 502 kts | 40° |
| 2026-04-23 12:00 | -3.29983 | -171.79946 | 36908 ft | 503 kts | 40° |
| 2026-04-23 12:01 | -3.24655 | -171.75413 | 36907 ft | 503 kts | 40° |
| 2026-04-23 12:01 | -3.19315 | -171.70870 | 36906 ft | 504 kts | 40° |
| 2026-04-23 12:02 | -3.14009 | -171.66357 | 36905 ft | 504 kts | 40° |
| 2026-04-23 12:02 | -3.08659 | -171.61806 | 36908 ft | 505 kts | 40° |
| 2026-04-23 12:03 | -3.03301 | -171.57250 | 36905 ft | 505 kts | 39° |
| 2026-04-23 12:03 | -2.97940 | -171.52692 | 36904 ft | 506 kts | 39° |
| 2026-04-23 12:04 | -2.92612 | -171.48163 | 36907 ft | 506 kts | 39° |
| 2026-04-23 12:04 | -2.87241 | -171.43597 | 36909 ft | 506 kts | 39° |
| 2026-04-23 12:05 | -2.81876 | -171.39036 | 36909 ft | 506 kts | 39° |
| 2026-04-23 12:05 | -2.76550 | -171.34511 | 36904 ft | 506 kts | 39° |
| 2026-04-23 12:06 | -2.71191 | -171.29958 | 36907 ft | 505 kts | 39° |
| 2026-04-23 12:06 | -2.63155 | -171.23131 | 36904 ft | 505 kts | 39° |
| 2026-04-23 12:07 | -2.57800 | -171.18583 | 36905 ft | 505 kts | 39° |
| 2026-04-23 12:07 | -2.52483 | -171.14066 | 36909 ft | 505 kts | 39° |
| 2026-04-23 12:08 | -2.47129 | -171.09519 | 36904 ft | 505 kts | 39° |
| 2026-04-23 12:08 | -2.41780 | -171.04977 | 36899 ft | 505 kts | 39° |
| 2026-04-23 12:09 | -2.36427 | -171.00432 | 36903 ft | 505 kts | 39° |
| 2026-04-23 12:09 | -2.31116 | -170.95923 | 36901 ft | 505 kts | 39° |
| 2026-04-23 12:10 | -2.25763 | -170.91379 | 36900 ft | 505 kts | 39° |
| 2026-04-23 12:10 | -2.20411 | -170.86836 | 36900 ft | 505 kts | 39° |
| 2026-04-23 12:11 | -2.15097 | -170.82325 | 36901 ft | 505 kts | 39° |
| 2026-04-23 12:11 | -2.09744 | -170.77782 | 36900 ft | 505 kts | 38° |
| 2026-04-23 12:12 | -2.04391 | -170.73241 | 36902 ft | 505 kts | 38° |
| 2026-04-23 12:12 | -1.99040 | -170.68701 | 36900 ft | 505 kts | 38° |
| 2026-04-23 12:13 | -1.93721 | -170.64187 | 36900 ft | 505 kts | 38° |
| 2026-04-23 12:13 | -1.88369 | -170.59647 | 36902 ft | 505 kts | 38° |
| 2026-04-23 12:14 | -1.83013 | -170.55104 | 36901 ft | 505 kts | 38° |
| 2026-04-23 12:14 | -1.77654 | -170.50559 | 36900 ft | 505 kts | 38° |
| 2026-04-23 12:15 | -1.72331 | -170.46043 | 36901 ft | 505 kts | 38° |
| 2026-04-23 12:15 | -1.66976 | -170.41502 | 36900 ft | 505 kts | 38° |
| 2026-04-23 12:16 | -1.61619 | -170.36959 | 36901 ft | 505 kts | 38° |
| 2026-04-23 12:16 | -1.56290 | -170.32440 | 36898 ft | 505 kts | 38° |
| 2026-04-23 12:17 | -1.50932 | -170.27898 | 36896 ft | 505 kts | 38° |
| 2026-04-23 12:17 | -1.45569 | -170.23351 | 36899 ft | 506 kts | 38° |
| 2026-04-23 12:18 | -1.40206 | -170.18804 | 36899 ft | 505 kts | 38° |
| 2026-04-23 12:18 | -1.34843 | -170.14257 | 36901 ft | 505 kts | 38° |
| 2026-04-23 12:19 | -1.29518 | -170.09744 | 36897 ft | 505 kts | 38° |
| 2026-04-23 12:19 | -1.24159 | -170.05201 | 36891 ft | 505 kts | 38° |
| 2026-04-23 12:20 | -1.18801 | -170.00660 | 36895 ft | 505 kts | 38° |
| 2026-04-23 12:20 | -1.13451 | -169.96126 | 36897 ft | 504 kts | 38° |
| 2026-04-23 12:21 | -1.08133 | -169.91618 | 36895 ft | 504 kts | 38° |
| 2026-04-23 12:21 | -1.02789 | -169.87090 | 36895 ft | 504 kts | 38° |
| 2026-04-23 12:22 | -0.97446 | -169.82562 | 36892 ft | 503 kts | 38° |
| 2026-04-23 12:22 | -0.92103 | -169.78035 | 36894 ft | 503 kts | 38° |
| 2026-04-23 12:23 | -0.86798 | -169.73539 | 36894 ft | 503 kts | 38° |
| 2026-04-23 12:23 | -0.81463 | -169.69019 | 36894 ft | 503 kts | 38° |
| 2026-04-23 12:24 | -0.76129 | -169.64499 | 36895 ft | 503 kts | 38° |
| 2026-04-23 12:24 | -0.70795 | -169.59980 | 36893 ft | 503 kts | 38° |
| 2026-04-23 12:25 | -0.65460 | -169.55461 | 36894 ft | 503 kts | 38° |
| 2026-04-23 12:25 | -0.60165 | -169.50974 | 36894 ft | 503 kts | 38° |
| 2026-04-23 12:26 | -0.54834 | -169.46458 | 36889 ft | 503 kts | 38° |
| 2026-04-23 12:26 | -0.49499 | -169.41939 | 36892 ft | 503 kts | 38° |
| 2026-04-23 12:27 | -0.44166 | -169.37421 | 36887 ft | 503 kts | 38° |
| 2026-04-23 12:27 | -0.38863 | -169.32928 | 36888 ft | 503 kts | 38° |
| 2026-04-23 12:28 | -0.33531 | -169.28411 | 36889 ft | 503 kts | 38° |
| 2026-04-23 12:28 | -0.28196 | -169.23892 | 36891 ft | 503 kts | 38° |
| 2026-04-23 12:29 | -0.22861 | -169.19374 | 36884 ft | 503 kts | 38° |
| 2026-04-23 12:29 | -0.17566 | -169.14888 | 36890 ft | 503 kts | 38° |
| 2026-04-23 12:30 | -0.12233 | -169.10370 | 36891 ft | 503 kts | 38° |
| 2026-04-23 12:30 | -0.06901 | -169.05854 | 36890 ft | 502 kts | 38° |
| 2026-04-23 12:31 | -0.01571 | -169.01340 | 36885 ft | 502 kts | 38° |
| 2026-04-23 12:31 | 0.03629 | -168.96731 | 36888 ft | 504 kts | 42° |
| 2026-04-23 12:32 | 0.08531 | -168.91726 | 36890 ft | 504 kts | 44° |
| 2026-04-23 12:32 | 0.13407 | -168.86689 | 36894 ft | 504 kts | 43° |
| 2026-04-23 12:33 | 0.18330 | -168.81714 | 36875 ft | 503 kts | 43° |
| 2026-04-23 12:33 | 0.23241 | -168.76811 | 36893 ft | 503 kts | 43° |
| 2026-04-23 12:34 | 0.28191 | -168.71882 | 36894 ft | 502 kts | 43° |
| 2026-04-23 12:34 | 0.33138 | -168.66951 | 36875 ft | 502 kts | 43° |
| 2026-04-23 12:35 | 0.38076 | -168.62025 | 36893 ft | 501 kts | 43° |
| 2026-04-23 12:35 | 0.42975 | -168.57137 | 36880 ft | 501 kts | 43° |
| 2026-04-23 12:36 | 0.47907 | -168.52217 | 36892 ft | 501 kts | 43° |
| 2026-04-23 12:36 | 0.52834 | -168.47301 | 36887 ft | 501 kts | 43° |
| 2026-04-23 12:37 | 0.57761 | -168.42386 | 36874 ft | 501 kts | 42° |
| 2026-04-23 12:37 | 0.62656 | -168.37501 | 36878 ft | 501 kts | 42° |
| 2026-04-23 12:38 | 0.67586 | -168.32582 | 36888 ft | 501 kts | 42° |
| 2026-04-23 12:38 | 0.72512 | -168.27667 | 36871 ft | 501 kts | 42° |
| 2026-04-23 12:39 | 0.77440 | -168.22750 | 36876 ft | 501 kts | 42° |
| 2026-04-23 12:39 | 0.82331 | -168.17870 | 36890 ft | 501 kts | 42° |
| 2026-04-23 12:40 | 0.87259 | -168.12952 | 36874 ft | 500 kts | 42° |
| 2026-04-23 12:40 | 0.92186 | -168.08035 | 36872 ft | 501 kts | 42° |
| 2026-04-23 12:41 | 0.97110 | -168.03121 | 36889 ft | 500 kts | 42° |
| 2026-04-23 12:41 | 1.02006 | -167.98235 | 36875 ft | 500 kts | 42° |
| 2026-04-23 12:42 | 1.06931 | -167.93320 | 36874 ft | 501 kts | 42° |
| 2026-04-23 12:42 | 1.11856 | -167.88404 | 36885 ft | 500 kts | 42° |
| 2026-04-23 12:43 | 1.16781 | -167.83488 | 36874 ft | 500 kts | 42° |
| 2026-04-23 12:43 | 1.21673 | -167.78605 | 36889 ft | 500 kts | 42° |
| 2026-04-23 12:44 | 1.26600 | -167.73687 | 36874 ft | 500 kts | 42° |
| 2026-04-23 12:44 | 1.31523 | -167.68772 | 36891 ft | 500 kts | 42° |
| 2026-04-23 12:45 | 1.36449 | -167.63853 | 36875 ft | 501 kts | 42° |
| 2026-04-23 12:45 | 1.41341 | -167.58969 | 36877 ft | 500 kts | 42° |
| 2026-04-23 12:46 | 1.46268 | -167.54050 | 36873 ft | 500 kts | 42° |
| 2026-04-23 12:46 | 1.51191 | -167.49134 | 36888 ft | 501 kts | 42° |
| 2026-04-23 12:47 | 1.56119 | -167.44213 | 36877 ft | 501 kts | 42° |
| 2026-04-23 12:47 | 1.61012 | -167.39326 | 36873 ft | 501 kts | 42° |
| 2026-04-23 12:48 | 1.65938 | -167.34405 | 36874 ft | 501 kts | 42° |
| 2026-04-23 12:48 | 1.70863 | -167.29487 | 36875 ft | 501 kts | 42° |
| 2026-04-23 12:49 | 1.75786 | -167.24569 | 36874 ft | 500 kts | 42° |
| 2026-04-23 12:49 | 1.80677 | -167.19682 | 36876 ft | 500 kts | 42° |
| 2026-04-23 12:50 | 1.85598 | -167.14766 | 36877 ft | 500 kts | 42° |
| 2026-04-23 12:50 | 1.90515 | -167.09853 | 36873 ft | 500 kts | 42° |
| 2026-04-23 12:51 | 1.95431 | -167.04940 | 36877 ft | 499 kts | 42° |
| 2026-04-23 12:51 | 2.00311 | -167.00064 | 36875 ft | 499 kts | 42° |
| 2026-04-23 12:52 | 2.05213 | -166.95164 | 36875 ft | 499 kts | 42° |
| 2026-04-23 12:52 | 2.10118 | -166.90262 | 36873 ft | 498 kts | 43° |
| 2026-04-23 12:53 | 2.15016 | -166.85365 | 36874 ft | 498 kts | 43° |
| 2026-04-23 12:53 | 2.19880 | -166.80503 | 36878 ft | 498 kts | 43° |
| 2026-04-23 12:54 | 2.24778 | -166.75607 | 36879 ft | 497 kts | 43° |
| 2026-04-23 12:54 | 2.29666 | -166.70719 | 36877 ft | 497 kts | 43° |
| 2026-04-23 12:55 | 2.34555 | -166.65830 | 36884 ft | 497 kts | 43° |
| 2026-04-23 12:55 | 2.39410 | -166.60974 | 36880 ft | 497 kts | 43° |
| 2026-04-23 12:56 | 2.44298 | -166.56085 | 36878 ft | 497 kts | 43° |
| 2026-04-23 12:56 | 2.49179 | -166.51203 | 36879 ft | 496 kts | 43° |
| 2026-04-23 12:57 | 2.54061 | -166.46318 | 36877 ft | 496 kts | 43° |
| 2026-04-23 12:57 | 2.58911 | -166.41465 | 36878 ft | 496 kts | 43° |
| 2026-04-23 12:58 | 2.63785 | -166.36588 | 36880 ft | 496 kts | 43° |
| 2026-04-23 12:58 | 2.68662 | -166.31707 | 36880 ft | 496 kts | 43° |
| 2026-04-23 12:59 | 2.73508 | -166.26856 | 36882 ft | 496 kts | 43° |
| 2026-04-23 12:59 | 2.78381 | -166.21978 | 36883 ft | 496 kts | 43° |
| 2026-04-23 13:00 | 2.83260 | -166.17094 | 36881 ft | 496 kts | 43° |
| 2026-04-23 13:00 | 2.88134 | -166.12213 | 36878 ft | 496 kts | 43° |
| 2026-04-23 13:01 | 2.92976 | -166.07364 | 36877 ft | 496 kts | 43° |
| 2026-04-23 13:01 | 2.97855 | -166.02479 | 36873 ft | 496 kts | 43° |
| 2026-04-23 13:02 | 3.02734 | -165.97591 | 36880 ft | 496 kts | 43° |
| 2026-04-23 13:02 | 3.07612 | -165.92704 | 36882 ft | 496 kts | 43° |
| 2026-04-23 13:03 | 3.12458 | -165.87848 | 36885 ft | 496 kts | 43° |
| 2026-04-23 13:03 | 3.17336 | -165.82959 | 36880 ft | 497 kts | 43° |
| 2026-04-23 13:04 | 3.22219 | -165.78065 | 36883 ft | 497 kts | 43° |
| 2026-04-23 13:04 | 3.27070 | -165.73203 | 36882 ft | 497 kts | 43° |
| 2026-04-23 13:05 | 3.31950 | -165.68311 | 36882 ft | 497 kts | 43° |
| 2026-04-23 13:05 | 3.36835 | -165.63413 | 36882 ft | 497 kts | 43° |
| 2026-04-23 13:06 | 3.44173 | -165.56053 | 36884 ft | 498 kts | 43° |
| 2026-04-23 13:07 | 3.49035 | -165.51176 | 36880 ft | 498 kts | 43° |
| 2026-04-23 13:07 | 3.53933 | -165.46262 | 36881 ft | 499 kts | 43° |
| 2026-04-23 13:08 | 3.58837 | -165.41342 | 36878 ft | 499 kts | 43° |
| 2026-04-23 13:08 | 3.63742 | -165.36419 | 36877 ft | 500 kts | 43° |
| 2026-04-23 13:09 | 3.68621 | -165.31523 | 36878 ft | 500 kts | 43° |
| 2026-04-23 13:09 | 3.73531 | -165.26594 | 36877 ft | 500 kts | 43° |
| 2026-04-23 13:10 | 3.78447 | -165.21658 | 36877 ft | 500 kts | 43° |
| 2026-04-23 13:10 | 3.83328 | -165.16757 | 36878 ft | 500 kts | 43° |
| 2026-04-23 13:11 | 3.88243 | -165.11820 | 36877 ft | 500 kts | 43° |
| 2026-04-23 13:11 | 3.93150 | -165.06891 | 36877 ft | 500 kts | 43° |
| 2026-04-23 13:12 | 3.98059 | -165.01959 | 36880 ft | 500 kts | 43° |
| 2026-04-23 13:12 | 4.00418 | -164.99393 | 36995 ft | 501 kts | 48° |
| 2026-04-23 13:12 | 4.02650 | -164.96722 | 37296 ft | 499 kts | 49° |
| 2026-04-23 13:12 | 4.04817 | -164.94080 | 37570 ft | 498 kts | 49° |
| 2026-04-23 13:13 | 4.07000 | -164.91390 | 37800 ft | 497 kts | 49° |
| 2026-04-23 13:13 | 4.09170 | -164.88702 | 38017 ft | 497 kts | 49° |
| 2026-04-23 13:13 | 4.11341 | -164.86009 | 38215 ft | 496 kts | 49° |
| 2026-04-23 13:13 | 4.13509 | -164.83321 | 38427 ft | 496 kts | 49° |
| 2026-04-23 13:14 | 4.15674 | -164.80639 | 38619 ft | 495 kts | 49° |
| 2026-04-23 13:14 | 4.17813 | -164.77991 | 38785 ft | 495 kts | 49° |
| 2026-04-23 13:14 | 4.19980 | -164.75310 | 38870 ft | 496 kts | 49° |
| 2026-04-23 13:15 | 4.24335 | -164.69926 | 38880 ft | 497 kts | 49° |
| 2026-04-23 13:15 | 4.28676 | -164.64555 | 38884 ft | 496 kts | 49° |
| 2026-04-23 13:16 | 4.33018 | -164.59183 | 38880 ft | 495 kts | 49° |
| 2026-04-23 13:16 | 4.37323 | -164.53856 | 38879 ft | 495 kts | 49° |
| 2026-04-23 13:17 | 4.41652 | -164.48497 | 38878 ft | 495 kts | 49° |
| 2026-04-23 13:17 | 4.45981 | -164.43137 | 38879 ft | 494 kts | 50° |
| 2026-04-23 13:18 | 4.50305 | -164.37782 | 38877 ft | 494 kts | 50° |
| 2026-04-23 13:18 | 4.54596 | -164.32467 | 38881 ft | 494 kts | 50° |
| 2026-04-23 13:19 | 4.58920 | -164.27110 | 38878 ft | 494 kts | 50° |
| 2026-04-23 13:19 | 4.63241 | -164.21755 | 38877 ft | 494 kts | 49° |
| 2026-04-23 13:20 | 4.67564 | -164.16397 | 38878 ft | 494 kts | 49° |
| 2026-04-23 13:20 | 4.71854 | -164.11079 | 38879 ft | 494 kts | 49° |
| 2026-04-23 13:21 | 4.76173 | -164.05723 | 38879 ft | 494 kts | 49° |
| 2026-04-23 13:21 | 4.80492 | -164.00367 | 38879 ft | 494 kts | 49° |
| 2026-04-23 13:22 | 4.84809 | -163.95012 | 38879 ft | 494 kts | 49° |
| 2026-04-23 13:22 | 4.89093 | -163.89695 | 38878 ft | 493 kts | 49° |
| 2026-04-23 13:23 | 4.93406 | -163.84343 | 38880 ft | 493 kts | 49° |
| 2026-04-23 13:23 | 4.97718 | -163.78990 | 38882 ft | 493 kts | 49° |
| 2026-04-23 13:24 | 5.02005 | -163.73667 | 38881 ft | 494 kts | 49° |
| 2026-04-23 13:24 | 5.06316 | -163.68314 | 38877 ft | 494 kts | 49° |
| 2026-04-23 13:25 | 5.10629 | -163.62956 | 38879 ft | 493 kts | 49° |
| 2026-04-23 13:25 | 5.14942 | -163.57596 | 38879 ft | 494 kts | 49° |
| 2026-04-23 13:26 | 5.19254 | -163.52238 | 38878 ft | 494 kts | 49° |
| 2026-04-23 13:26 | 5.23534 | -163.46918 | 38878 ft | 494 kts | 49° |
| 2026-04-23 13:27 | 5.27847 | -163.41555 | 38880 ft | 494 kts | 49° |
| 2026-04-23 13:27 | 5.32158 | -163.36194 | 38879 ft | 494 kts | 48° |
| 2026-04-23 13:28 | 5.36477 | -163.30821 | 38879 ft | 494 kts | 48° |
| 2026-04-23 13:28 | 5.40766 | -163.25484 | 38878 ft | 495 kts | 48° |
| 2026-04-23 13:29 | 5.45091 | -163.20101 | 38881 ft | 496 kts | 48° |
| 2026-04-23 13:29 | 5.49424 | -163.14706 | 38880 ft | 496 kts | 48° |
| 2026-04-23 13:30 | 5.53728 | -163.09346 | 38879 ft | 497 kts | 48° |
| 2026-04-23 13:30 | 5.58070 | -163.03938 | 38879 ft | 498 kts | 48° |
| 2026-04-23 13:31 | 5.62418 | -162.98520 | 38875 ft | 498 kts | 48° |
| 2026-04-23 13:31 | 5.66768 | -162.93100 | 38876 ft | 499 kts | 47° |
| 2026-04-23 13:32 | 5.71093 | -162.87709 | 38875 ft | 499 kts | 48° |
| 2026-04-23 13:32 | 5.75451 | -162.82276 | 38875 ft | 500 kts | 48° |
| 2026-04-23 13:33 | 5.79813 | -162.76835 | 38874 ft | 500 kts | 48° |
| 2026-04-23 13:33 | 5.84176 | -162.71391 | 38876 ft | 500 kts | 47° |
| 2026-04-23 13:34 | 5.88512 | -162.65980 | 38873 ft | 501 kts | 47° |
| 2026-04-23 13:34 | 5.92881 | -162.60527 | 38874 ft | 501 kts | 47° |
| 2026-04-23 13:35 | 5.97251 | -162.55070 | 38877 ft | 502 kts | 47° |
| 2026-04-23 13:35 | 6.01628 | -162.49603 | 38874 ft | 502 kts | 47° |
| 2026-04-23 13:36 | 6.05974 | -162.44173 | 38873 ft | 502 kts | 47° |
| 2026-04-23 13:36 | 6.10351 | -162.38704 | 38873 ft | 502 kts | 47° |
| 2026-04-23 13:37 | 6.14724 | -162.33238 | 38872 ft | 502 kts | 47° |
| 2026-04-23 13:37 | 6.19099 | -162.27767 | 38870 ft | 502 kts | 47° |
| 2026-04-23 13:38 | 6.23470 | -162.22301 | 38874 ft | 502 kts | 48° |
| 2026-04-23 13:38 | 6.27813 | -162.16866 | 38873 ft | 502 kts | 48° |
| 2026-04-23 13:39 | 6.32185 | -162.11395 | 38871 ft | 502 kts | 48° |
| 2026-04-23 13:39 | 6.36556 | -162.05923 | 38874 ft | 502 kts | 48° |
| 2026-04-23 13:40 | 6.40924 | -162.00453 | 38874 ft | 502 kts | 48° |
| 2026-04-23 13:40 | 6.45267 | -161.95013 | 38872 ft | 502 kts | 48° |
| 2026-04-23 13:41 | 6.49639 | -161.89535 | 38873 ft | 502 kts | 48° |
| 2026-04-23 13:41 | 6.54013 | -161.84052 | 38872 ft | 503 kts | 48° |
| 2026-04-23 13:42 | 6.58386 | -161.78569 | 38872 ft | 503 kts | 48° |
| 2026-04-23 13:42 | 6.62731 | -161.73119 | 38872 ft | 503 kts | 48° |
| 2026-04-23 13:43 | 6.67109 | -161.67627 | 38874 ft | 503 kts | 48° |
| 2026-04-23 13:43 | 6.71492 | -161.62125 | 38872 ft | 503 kts | 48° |
| 2026-04-23 13:44 | 6.75842 | -161.56664 | 38873 ft | 504 kts | 48° |
| 2026-04-23 13:44 | 6.80222 | -161.51163 | 38876 ft | 504 kts | 47° |
| 2026-04-23 13:45 | 6.83863 | -161.46589 | 38878 ft | 504 kts | 47° |
| 2026-04-23 13:45 | 6.88982 | -161.40155 | 38877 ft | 504 kts | 47° |
| 2026-04-23 13:46 | 6.93329 | -161.34691 | 38879 ft | 503 kts | 47° |
| 2026-04-23 13:46 | 6.97703 | -161.29190 | 38878 ft | 503 kts | 47° |
| 2026-04-23 13:47 | 7.02072 | -161.23696 | 38877 ft | 503 kts | 47° |
| 2026-04-23 13:47 | 7.06443 | -161.18195 | 38878 ft | 503 kts | 46° |
| 2026-04-23 13:48 | 7.10779 | -161.12738 | 38880 ft | 502 kts | 46° |
| 2026-04-23 13:48 | 7.15137 | -161.07250 | 38883 ft | 502 kts | 46° |
| 2026-04-23 13:49 | 7.19498 | -161.01757 | 38882 ft | 502 kts | 46° |
| 2026-04-23 13:49 | 7.23854 | -160.96268 | 38884 ft | 501 kts | 46° |
| 2026-04-23 13:50 | 7.28177 | -160.90819 | 38884 ft | 501 kts | 46° |
| 2026-04-23 13:50 | 7.32525 | -160.85337 | 38887 ft | 501 kts | 46° |
| 2026-04-23 13:51 | 7.36873 | -160.79853 | 38887 ft | 501 kts | 46° |
| 2026-04-23 13:51 | 7.41221 | -160.74367 | 38884 ft | 501 kts | 46° |
| 2026-04-23 13:52 | 7.45534 | -160.68923 | 38886 ft | 501 kts | 46° |
| 2026-04-23 13:52 | 7.49880 | -160.63435 | 38889 ft | 501 kts | 46° |
| 2026-04-23 13:53 | 7.54222 | -160.57952 | 38882 ft | 501 kts | 46° |
| 2026-04-23 13:53 | 7.58539 | -160.52496 | 38881 ft | 501 kts | 46° |
| 2026-04-23 13:54 | 7.62881 | -160.47008 | 38887 ft | 501 kts | 46° |
| 2026-04-23 13:54 | 7.67220 | -160.41521 | 38894 ft | 500 kts | 46° |
| 2026-04-23 13:55 | 7.71555 | -160.36038 | 38894 ft | 500 kts | 46° |
| 2026-04-23 13:55 | 7.75155 | -160.31483 | 38891 ft | 500 kts | 46° |
| 2026-04-23 13:56 | 7.80189 | -160.25111 | 38894 ft | 499 kts | 46° |
| 2026-04-23 13:56 | 7.84514 | -160.19635 | 38897 ft | 499 kts | 46° |
| 2026-04-23 13:57 | 7.88834 | -160.14162 | 38900 ft | 498 kts | 46° |
| 2026-04-23 13:57 | 7.93120 | -160.08731 | 38893 ft | 498 kts | 46° |
| 2026-04-23 13:58 | 7.97433 | -160.03264 | 38896 ft | 498 kts | 46° |
| 2026-04-23 13:58 | 8.01747 | -159.97809 | 38898 ft | 497 kts | 46° |
| 2026-04-23 13:59 | 8.05397 | -159.93325 | 38902 ft | 497 kts | 45° |
| 2026-04-23 13:59 | 8.10527 | -159.87086 | 38899 ft | 497 kts | 45° |
| 2026-04-23 14:00 | 8.14191 | -159.82611 | 38898 ft | 497 kts | 46° |
| 2026-04-23 14:00 | 8.18593 | -159.77216 | 38896 ft | 498 kts | 46° |
| 2026-04-23 14:01 | 8.22989 | -159.71819 | 38901 ft | 498 kts | 46° |
| 2026-04-23 14:01 | 8.28101 | -159.65541 | 38896 ft | 498 kts | 46° |
| 2026-04-23 14:02 | 8.32507 | -159.60130 | 38898 ft | 499 kts | 46° |
| 2026-04-23 14:02 | 8.36164 | -159.55637 | 38899 ft | 499 kts | 46° |
| 2026-04-23 14:03 | 8.40570 | -159.50220 | 38903 ft | 499 kts | 46° |
| 2026-04-23 14:03 | 8.45699 | -159.43912 | 38908 ft | 500 kts | 45° |
| 2026-04-23 14:04 | 8.49398 | -159.39362 | 38906 ft | 500 kts | 45° |
| 2026-04-23 14:04 | 8.53785 | -159.33963 | 38907 ft | 501 kts | 45° |
| 2026-04-23 14:05 | 8.58213 | -159.28512 | 38903 ft | 501 kts | 45° |
| 2026-04-23 14:05 | 8.62639 | -159.23060 | 38903 ft | 502 kts | 45° |
| 2026-04-23 14:06 | 8.67040 | -159.17638 | 38907 ft | 502 kts | 45° |
| 2026-04-23 14:06 | 8.71474 | -159.12172 | 38907 ft | 503 kts | 45° |
| 2026-04-23 14:07 | 8.75906 | -159.06707 | 38911 ft | 503 kts | 45° |
| 2026-04-23 14:07 | 8.82565 | -158.98492 | 38905 ft | 504 kts | 45° |
| 2026-04-23 14:08 | 8.86977 | -158.93045 | 38907 ft | 504 kts | 45° |
| 2026-04-23 14:08 | 8.91418 | -158.87561 | 38908 ft | 504 kts | 45° |
| 2026-04-23 14:09 | 8.95861 | -158.82072 | 38911 ft | 504 kts | 45° |
| 2026-04-23 14:09 | 9.00307 | -158.76577 | 38898 ft | 505 kts | 45° |
| 2026-04-23 14:10 | 9.04751 | -158.71081 | 38916 ft | 505 kts | 45° |
| 2026-04-23 14:10 | 9.09170 | -158.65615 | 38901 ft | 505 kts | 45° |
| 2026-04-23 14:11 | 9.13614 | -158.60114 | 38902 ft | 505 kts | 45° |
| 2026-04-23 14:11 | 9.18060 | -158.54609 | 38921 ft | 505 kts | 45° |
| 2026-04-23 14:12 | 9.22502 | -158.49107 | 38912 ft | 505 kts | 45° |
| 2026-04-23 14:12 | 9.26911 | -158.43643 | 38914 ft | 505 kts | 45° |
| 2026-04-23 14:13 | 9.31350 | -158.38141 | 38909 ft | 505 kts | 45° |
| 2026-04-23 14:13 | 9.35793 | -158.32631 | 38916 ft | 505 kts | 45° |
| 2026-04-23 14:14 | 9.40226 | -158.27130 | 38924 ft | 504 kts | 45° |
| 2026-04-23 14:14 | 9.44633 | -158.21659 | 38913 ft | 504 kts | 45° |
| 2026-04-23 14:15 | 9.49069 | -158.16149 | 38917 ft | 504 kts | 45° |
| 2026-04-23 14:15 | 9.53501 | -158.10643 | 38917 ft | 504 kts | 45° |
| 2026-04-23 14:16 | 9.57900 | -158.05174 | 38915 ft | 504 kts | 45° |
| 2026-04-23 14:16 | 9.62326 | -157.99671 | 38921 ft | 503 kts | 45° |
| 2026-04-23 14:17 | 9.66746 | -157.94170 | 38921 ft | 503 kts | 46° |
| 2026-04-23 14:17 | 9.71161 | -157.88674 | 38917 ft | 503 kts | 46° |
| 2026-04-23 14:18 | 9.75548 | -157.83211 | 38920 ft | 502 kts | 46° |
| 2026-04-23 14:18 | 9.79953 | -157.77724 | 38924 ft | 502 kts | 46° |
| 2026-04-23 14:19 | 9.84358 | -157.72232 | 38921 ft | 501 kts | 46° |
| 2026-04-23 14:19 | 9.88755 | -157.66749 | 38922 ft | 501 kts | 46° |
| 2026-04-23 14:20 | 9.93121 | -157.61302 | 38920 ft | 500 kts | 46° |
| 2026-04-23 14:20 | 9.97508 | -157.55825 | 38924 ft | 500 kts | 47° |
| 2026-04-23 14:21 | 10.01891 | -157.50351 | 38924 ft | 500 kts | 47° |
| 2026-04-23 14:21 | 10.06271 | -157.44880 | 38924 ft | 499 kts | 47° |
| 2026-04-23 14:22 | 10.10621 | -157.39441 | 38923 ft | 499 kts | 47° |
| 2026-04-23 14:22 | 10.14993 | -157.33974 | 38922 ft | 499 kts | 47° |
| 2026-04-23 14:23 | 10.19363 | -157.28506 | 38926 ft | 499 kts | 47° |
| 2026-04-23 14:23 | 10.23731 | -157.23038 | 38929 ft | 498 kts | 47° |
| 2026-04-23 14:24 | 10.28065 | -157.17610 | 38928 ft | 498 kts | 47° |
| 2026-04-23 14:24 | 10.32424 | -157.12148 | 38928 ft | 498 kts | 48° |
| 2026-04-23 14:25 | 10.36783 | -157.06684 | 38930 ft | 498 kts | 48° |
| 2026-04-23 14:25 | 10.41141 | -157.01217 | 38930 ft | 497 kts | 48° |
| 2026-04-23 14:26 | 10.45463 | -156.95794 | 38929 ft | 497 kts | 48° |
| 2026-04-23 14:26 | 10.49812 | -156.90333 | 38929 ft | 497 kts | 48° |
| 2026-04-23 14:27 | 10.54161 | -156.84870 | 38928 ft | 497 kts | 48° |
| 2026-04-23 14:27 | 10.58477 | -156.79446 | 38930 ft | 497 kts | 48° |
| 2026-04-23 14:28 | 10.62820 | -156.73985 | 38929 ft | 497 kts | 48° |
| 2026-04-23 14:28 | 10.67163 | -156.68522 | 38932 ft | 497 kts | 48° |
| 2026-04-23 14:29 | 10.71502 | -156.63061 | 38933 ft | 497 kts | 49° |
| 2026-04-23 14:29 | 10.75843 | -156.57593 | 38932 ft | 496 kts | 49° |
| 2026-04-23 14:30 | 10.80149 | -156.52168 | 38934 ft | 496 kts | 49° |
| 2026-04-23 14:30 | 10.84484 | -156.46703 | 38934 ft | 496 kts | 49° |
| 2026-04-23 14:31 | 10.88818 | -156.41237 | 38934 ft | 496 kts | 49° |
| 2026-04-23 14:31 | 10.93150 | -156.35771 | 38937 ft | 496 kts | 49° |
| 2026-04-23 14:32 | 10.97454 | -156.30337 | 38939 ft | 496 kts | 49° |
| 2026-04-23 14:32 | 11.01780 | -156.24872 | 38935 ft | 496 kts | 49° |
| 2026-04-23 14:33 | 11.06106 | -156.19405 | 38938 ft | 496 kts | 49° |
| 2026-04-23 14:33 | 11.10406 | -156.13968 | 38939 ft | 496 kts | 49° |
| 2026-04-23 14:34 | 11.14728 | -156.08499 | 38938 ft | 496 kts | 49° |
| 2026-04-23 14:34 | 11.19046 | -156.03033 | 38938 ft | 495 kts | 49° |
| 2026-04-23 14:35 | 11.23366 | -155.97562 | 38943 ft | 495 kts | 49° |
| 2026-04-23 14:35 | 11.27656 | -155.92126 | 38938 ft | 495 kts | 49° |
| 2026-04-23 14:36 | 11.31968 | -155.86659 | 38942 ft | 495 kts | 49° |
| 2026-04-23 14:36 | 11.36281 | -155.81188 | 38942 ft | 495 kts | 49° |
| 2026-04-23 14:37 | 11.40590 | -155.75718 | 38946 ft | 495 kts | 49° |
| 2026-04-23 14:37 | 11.44901 | -155.70244 | 38941 ft | 495 kts | 49° |
| 2026-04-23 14:38 | 11.49177 | -155.64812 | 38945 ft | 495 kts | 49° |
| 2026-04-23 14:38 | 11.53479 | -155.59342 | 38948 ft | 494 kts | 49° |
| 2026-04-23 14:39 | 11.57781 | -155.53870 | 38947 ft | 494 kts | 49° |
| 2026-04-23 14:39 | 11.62081 | -155.48398 | 38948 ft | 494 kts | 49° |
| 2026-04-23 14:40 | 11.66350 | -155.42962 | 38947 ft | 494 kts | 49° |
| 2026-04-23 14:40 | 11.70645 | -155.37490 | 38951 ft | 494 kts | 49° |
| 2026-04-23 14:41 | 11.74936 | -155.32021 | 38950 ft | 494 kts | 49° |
| 2026-04-23 14:41 | 11.79226 | -155.26548 | 38947 ft | 494 kts | 49° |
| 2026-04-23 14:42 | 11.83487 | -155.21111 | 38946 ft | 494 kts | 49° |
| 2026-04-23 14:42 | 11.87776 | -155.15634 | 38945 ft | 494 kts | 49° |
| 2026-04-23 14:43 | 11.92060 | -155.10161 | 38949 ft | 494 kts | 49° |
| 2026-04-23 14:43 | 11.96350 | -155.04678 | 38950 ft | 494 kts | 49° |
| 2026-04-23 14:44 | 12.00603 | -154.99240 | 38951 ft | 494 kts | 49° |
| 2026-04-23 14:44 | 12.04981 | -154.93847 | 38953 ft | 493 kts | 47° |
| 2026-04-23 14:45 | 12.09426 | -154.88507 | 38949 ft | 493 kts | 47° |
| 2026-04-23 14:45 | 12.13860 | -154.83155 | 38951 ft | 493 kts | 47° |
| 2026-04-23 14:46 | 12.18247 | -154.77825 | 38953 ft | 493 kts | 47° |
| 2026-04-23 14:46 | 12.22656 | -154.72453 | 38948 ft | 493 kts | 47° |
| 2026-04-23 14:47 | 12.27065 | -154.67079 | 38959 ft | 494 kts | 47° |
| 2026-04-23 14:47 | 12.31449 | -154.61734 | 38959 ft | 494 kts | 47° |
| 2026-04-23 14:48 | 12.35860 | -154.56352 | 38962 ft | 494 kts | 47° |
| 2026-04-23 14:48 | 12.40271 | -154.50969 | 38955 ft | 494 kts | 47° |
| 2026-04-23 14:49 | 12.44688 | -154.45575 | 38953 ft | 494 kts | 47° |
| 2026-04-23 14:49 | 12.49071 | -154.40218 | 38964 ft | 494 kts | 47° |
| 2026-04-23 14:50 | 12.53484 | -154.34823 | 38964 ft | 495 kts | 47° |
| 2026-04-23 14:50 | 12.57902 | -154.29417 | 38961 ft | 495 kts | 47° |
| 2026-04-23 14:51 | 12.62319 | -154.24011 | 38963 ft | 495 kts | 47° |
| 2026-04-23 14:51 | 12.66707 | -154.18637 | 38964 ft | 495 kts | 47° |
| 2026-04-23 14:52 | 12.71124 | -154.13223 | 38965 ft | 496 kts | 47° |
| 2026-04-23 14:52 | 12.75546 | -154.07800 | 38966 ft | 496 kts | 47° |
| 2026-04-23 14:53 | 12.79968 | -154.02375 | 38960 ft | 496 kts | 48° |
| 2026-04-23 14:53 | 12.84363 | -153.96978 | 38969 ft | 497 kts | 48° |
| 2026-04-23 14:54 | 12.88788 | -153.91541 | 38965 ft | 497 kts | 48° |
| 2026-04-23 14:54 | 12.93214 | -153.86101 | 38968 ft | 497 kts | 48° |
| 2026-04-23 14:55 | 12.97641 | -153.80656 | 38963 ft | 497 kts | 48° |
| 2026-04-23 14:55 | 13.02042 | -153.75238 | 38965 ft | 498 kts | 48° |
| 2026-04-23 14:56 | 13.06472 | -153.69784 | 38971 ft | 498 kts | 48° |
| 2026-04-23 14:56 | 13.10901 | -153.64326 | 38977 ft | 498 kts | 48° |
| 2026-04-23 14:57 | 13.15337 | -153.58855 | 38979 ft | 498 kts | 48° |
| 2026-04-23 14:57 | 13.19740 | -153.53423 | 38979 ft | 498 kts | 48° |
| 2026-04-23 14:58 | 13.24172 | -153.47952 | 38966 ft | 499 kts | 48° |
| 2026-04-23 14:58 | 13.28610 | -153.42469 | 38982 ft | 499 kts | 48° |
| 2026-04-23 14:59 | 13.33044 | -153.36987 | 38984 ft | 499 kts | 48° |
| 2026-04-23 14:59 | 13.37447 | -153.31541 | 38968 ft | 499 kts | 48° |
| 2026-04-23 15:00 | 13.41887 | -153.26045 | 38974 ft | 500 kts | 48° |
| 2026-04-23 15:00 | 13.46321 | -153.20554 | 38988 ft | 500 kts | 48° |
| 2026-04-23 15:01 | 13.50729 | -153.15091 | 38976 ft | 500 kts | 48° |
| 2026-04-23 15:01 | 13.55160 | -153.09596 | 38978 ft | 500 kts | 48° |
| 2026-04-23 15:02 | 13.59596 | -153.04091 | 38978 ft | 499 kts | 48° |
| 2026-04-23 15:02 | 13.64020 | -152.98597 | 38978 ft | 499 kts | 48° |
| 2026-04-23 15:03 | 13.68419 | -152.93132 | 38983 ft | 499 kts | 48° |
| 2026-04-23 15:03 | 13.72851 | -152.87622 | 38994 ft | 499 kts | 48° |
| 2026-04-23 15:04 | 13.77277 | -152.82116 | 38982 ft | 499 kts | 48° |
| 2026-04-23 15:04 | 13.81702 | -152.76606 | 38985 ft | 499 kts | 48° |
| 2026-04-23 15:05 | 13.86095 | -152.71134 | 38984 ft | 499 kts | 48° |
| 2026-04-23 15:05 | 13.90516 | -152.65622 | 38987 ft | 499 kts | 48° |
| 2026-04-23 15:06 | 13.94936 | -152.60110 | 38988 ft | 499 kts | 48° |
| 2026-04-23 15:06 | 13.99349 | -152.54601 | 38987 ft | 499 kts | 48° |
| 2026-04-23 15:07 | 14.03736 | -152.49121 | 38991 ft | 499 kts | 48° |
| 2026-04-23 15:07 | 14.08149 | -152.43606 | 38992 ft | 499 kts | 48° |
| 2026-04-23 15:08 | 14.12562 | -152.38086 | 38993 ft | 499 kts | 48° |
| 2026-04-23 15:09 | 14.19143 | -152.29849 | 38994 ft | 499 kts | 48° |
| 2026-04-23 15:09 | 14.23550 | -152.24327 | 38993 ft | 499 kts | 48° |
| 2026-04-23 15:10 | 14.27212 | -152.19737 | 38995 ft | 499 kts | 48° |
| 2026-04-23 15:10 | 14.32332 | -152.13314 | 38997 ft | 499 kts | 48° |
| 2026-04-23 15:11 | 14.36734 | -152.07788 | 38995 ft | 499 kts | 48° |
| 2026-04-23 15:11 | 14.41135 | -152.02259 | 38998 ft | 498 kts | 48° |
| 2026-04-23 15:12 | 14.45533 | -151.96730 | 38999 ft | 498 kts | 48° |
| 2026-04-23 15:12 | 14.49898 | -151.91240 | 39004 ft | 498 kts | 48° |
| 2026-04-23 15:13 | 14.54294 | -151.85706 | 39003 ft | 498 kts | 48° |
| 2026-04-23 15:13 | 14.58692 | -151.80165 | 39001 ft | 498 kts | 48° |
| 2026-04-23 15:14 | 14.63084 | -151.74629 | 39004 ft | 499 kts | 48° |
| 2026-04-23 15:14 | 14.67447 | -151.69126 | 39007 ft | 499 kts | 48° |
| 2026-04-23 15:15 | 14.71838 | -151.63582 | 39008 ft | 499 kts | 48° |
| 2026-04-23 15:15 | 14.76229 | -151.58036 | 39006 ft | 499 kts | 48° |
| 2026-04-23 15:16 | 14.80616 | -151.52490 | 39007 ft | 498 kts | 48° |
| 2026-04-23 15:16 | 14.84975 | -151.46975 | 39009 ft | 498 kts | 48° |
| 2026-04-23 15:17 | 14.89359 | -151.41427 | 39012 ft | 498 kts | 48° |
| 2026-04-23 15:17 | 14.93740 | -151.35876 | 39009 ft | 498 kts | 48° |
| 2026-04-23 15:18 | 14.98091 | -151.30360 | 39009 ft | 498 kts | 48° |
| 2026-04-23 15:18 | 15.02467 | -151.24809 | 39009 ft | 498 kts | 48° |
| 2026-04-23 15:19 | 15.06840 | -151.19258 | 39010 ft | 497 kts | 49° |
| 2026-04-23 15:19 | 15.11209 | -151.13707 | 39009 ft | 497 kts | 49° |
| 2026-04-23 15:20 | 15.15542 | -151.08198 | 39014 ft | 497 kts | 49° |
| 2026-04-23 15:20 | 15.19902 | -151.02652 | 39012 ft | 496 kts | 49° |
| 2026-04-23 15:21 | 15.24259 | -150.97104 | 39010 ft | 496 kts | 49° |
| 2026-04-23 15:21 | 15.28609 | -150.91561 | 39014 ft | 496 kts | 49° |
| 2026-04-23 15:22 | 15.32926 | -150.86058 | 39010 ft | 496 kts | 49° |
| 2026-04-23 15:22 | 15.37271 | -150.80513 | 39017 ft | 495 kts | 49° |
| 2026-04-23 15:23 | 15.41611 | -150.74971 | 39017 ft | 495 kts | 49° |
| 2026-04-23 15:23 | 15.45952 | -150.69424 | 39019 ft | 495 kts | 49° |
| 2026-04-23 15:24 | 15.50259 | -150.63917 | 39018 ft | 495 kts | 49° |
| 2026-04-23 15:24 | 15.54587 | -150.58378 | 39022 ft | 495 kts | 49° |
| 2026-04-23 15:25 | 15.58918 | -150.52831 | 39021 ft | 494 kts | 49° |
| 2026-04-23 15:25 | 15.63244 | -150.47287 | 39021 ft | 494 kts | 49° |
| 2026-04-23 15:26 | 15.67539 | -150.41778 | 39019 ft | 494 kts | 49° |
| 2026-04-23 15:26 | 15.71857 | -150.36236 | 39025 ft | 494 kts | 49° |
| 2026-04-23 15:27 | 15.76174 | -150.30691 | 39022 ft | 494 kts | 49° |
| 2026-04-23 15:27 | 15.80463 | -150.25178 | 39027 ft | 494 kts | 49° |
| 2026-04-23 15:28 | 15.84774 | -150.19632 | 39028 ft | 494 kts | 49° |
| 2026-04-23 15:28 | 15.89083 | -150.14085 | 39026 ft | 493 kts | 49° |
| 2026-04-23 15:29 | 15.93391 | -150.08536 | 39027 ft | 493 kts | 49° |
| 2026-04-23 15:29 | 15.97669 | -150.03020 | 39024 ft | 493 kts | 49° |
| 2026-04-23 15:30 | 16.01712 | -149.97242 | 39027 ft | 495 kts | 54° |
| 2026-04-23 15:30 | 16.05481 | -149.91249 | 39026 ft | 495 kts | 54° |
| 2026-04-23 15:31 | 16.09207 | -149.85225 | 39029 ft | 495 kts | 54° |
| 2026-04-23 15:31 | 16.12908 | -149.79238 | 39029 ft | 495 kts | 54° |
| 2026-04-23 15:32 | 16.16637 | -149.73216 | 39030 ft | 495 kts | 54° |
| 2026-04-23 15:32 | 16.20372 | -149.67188 | 39029 ft | 495 kts | 54° |
| 2026-04-23 15:33 | 16.24080 | -149.61200 | 39028 ft | 495 kts | 54° |
| 2026-04-23 15:33 | 16.27806 | -149.55176 | 39035 ft | 495 kts | 54° |
| 2026-04-23 15:34 | 16.31537 | -149.49139 | 39035 ft | 495 kts | 54° |
| 2026-04-23 15:34 | 16.35263 | -149.43103 | 39035 ft | 495 kts | 54° |
| 2026-04-23 15:35 | 16.38985 | -149.37070 | 39036 ft | 495 kts | 54° |
| 2026-04-23 15:35 | 16.42684 | -149.31070 | 39035 ft | 495 kts | 54° |
| 2026-04-23 15:36 | 16.46402 | -149.25033 | 39036 ft | 495 kts | 54° |
| 2026-04-23 15:36 | 16.50122 | -149.18988 | 39036 ft | 495 kts | 54° |
| 2026-04-23 15:37 | 16.53836 | -149.12947 | 39034 ft | 495 kts | 54° |
| 2026-04-23 15:37 | 16.57525 | -149.06941 | 39036 ft | 495 kts | 54° |
| 2026-04-23 15:38 | 16.61237 | -149.00894 | 39036 ft | 495 kts | 54° |
| 2026-04-23 15:38 | 16.64949 | -148.94841 | 39038 ft | 495 kts | 54° |
| 2026-04-23 15:39 | 16.68631 | -148.88831 | 39039 ft | 495 kts | 54° |
| 2026-04-23 15:39 | 16.72335 | -148.82782 | 39039 ft | 495 kts | 54° |
| 2026-04-23 15:40 | 16.76038 | -148.76728 | 39041 ft | 495 kts | 54° |
| 2026-04-23 15:40 | 16.79740 | -148.70670 | 39040 ft | 495 kts | 54° |
| 2026-04-23 15:41 | 16.83414 | -148.64654 | 39043 ft | 495 kts | 54° |
| 2026-04-23 15:41 | 16.87107 | -148.58601 | 39041 ft | 495 kts | 54° |
| 2026-04-23 15:42 | 16.90804 | -148.52537 | 39040 ft | 495 kts | 54° |
| 2026-04-23 15:42 | 16.94492 | -148.46481 | 39041 ft | 494 kts | 54° |
| 2026-04-23 15:43 | 16.98158 | -148.40457 | 39043 ft | 495 kts | 54° |
| 2026-04-23 15:43 | 17.01847 | -148.34388 | 39042 ft | 495 kts | 54° |
| 2026-04-23 15:44 | 17.05532 | -148.28322 | 39043 ft | 495 kts | 54° |
| 2026-04-23 15:44 | 17.09218 | -148.22249 | 39042 ft | 495 kts | 54° |
| 2026-04-23 15:45 | 17.12876 | -148.16215 | 39043 ft | 495 kts | 54° |
| 2026-04-23 15:45 | 17.16562 | -148.10131 | 39042 ft | 495 kts | 54° |
| 2026-04-23 15:46 | 17.20244 | -148.04048 | 39041 ft | 495 kts | 54° |
| 2026-04-23 15:46 | 17.23924 | -147.97963 | 39043 ft | 495 kts | 54° |
| 2026-04-23 15:47 | 17.27580 | -147.91912 | 39044 ft | 495 kts | 54° |
| 2026-04-23 15:47 | 17.31263 | -147.85810 | 39047 ft | 496 kts | 54° |
| 2026-04-23 15:48 | 17.34942 | -147.79711 | 39048 ft | 496 kts | 54° |
| 2026-04-23 15:48 | 17.38618 | -147.73609 | 39046 ft | 496 kts | 54° |
| 2026-04-23 15:49 | 17.42276 | -147.67533 | 39046 ft | 496 kts | 54° |
| 2026-04-23 15:49 | 17.45954 | -147.61418 | 39048 ft | 496 kts | 54° |
| 2026-04-23 15:50 | 17.49634 | -147.55294 | 39048 ft | 497 kts | 54° |
| 2026-04-23 15:50 | 17.53315 | -147.49164 | 39051 ft | 497 kts | 54° |
| 2026-04-23 15:51 | 17.56970 | -147.43071 | 39053 ft | 497 kts | 54° |
| 2026-04-23 15:51 | 17.60651 | -147.36928 | 39051 ft | 498 kts | 54° |
| 2026-04-23 15:52 | 17.64328 | -147.30786 | 39054 ft | 498 kts | 54° |
| 2026-04-23 15:52 | 17.67985 | -147.24673 | 39053 ft | 498 kts | 54° |
| 2026-04-23 15:53 | 17.71665 | -147.18517 | 39054 ft | 498 kts | 54° |
| 2026-04-23 15:53 | 17.75345 | -147.12352 | 39055 ft | 499 kts | 54° |
| 2026-04-23 15:54 | 17.79025 | -147.06183 | 39055 ft | 499 kts | 54° |
| 2026-04-23 15:54 | 17.82679 | -147.00053 | 39053 ft | 499 kts | 54° |
| 2026-04-23 15:55 | 17.86358 | -146.93873 | 39055 ft | 499 kts | 54° |
| 2026-04-23 15:55 | 17.90038 | -146.87687 | 39057 ft | 500 kts | 54° |
| 2026-04-23 15:56 | 17.93715 | -146.81499 | 39060 ft | 500 kts | 54° |
| 2026-04-23 15:56 | 17.97370 | -146.75344 | 39060 ft | 500 kts | 54° |
| 2026-04-23 15:57 | 18.01048 | -146.69143 | 39058 ft | 500 kts | 54° |
| 2026-04-23 15:57 | 18.04725 | -146.62938 | 39060 ft | 500 kts | 54° |
| 2026-04-23 15:58 | 18.08400 | -146.56729 | 39050 ft | 501 kts | 54° |
| 2026-04-23 15:58 | 18.12076 | -146.50515 | 39053 ft | 501 kts | 54° |
| 2026-04-23 15:59 | 18.15726 | -146.44338 | 39067 ft | 501 kts | 54° |
| 2026-04-23 15:59 | 18.19401 | -146.38113 | 39058 ft | 501 kts | 54° |
| 2026-04-23 16:00 | 18.23077 | -146.31879 | 39062 ft | 501 kts | 54° |
| 2026-04-23 16:00 | 18.26726 | -146.25686 | 39061 ft | 502 kts | 54° |
| 2026-04-23 16:01 | 18.30400 | -146.19445 | 39058 ft | 502 kts | 54° |
| 2026-04-23 16:01 | 18.34074 | -146.13196 | 39064 ft | 502 kts | 54° |
| 2026-04-23 16:02 | 18.37747 | -146.06943 | 39071 ft | 503 kts | 54° |
| 2026-04-23 16:02 | 18.41398 | -146.00723 | 39074 ft | 503 kts | 54° |
| 2026-04-23 16:03 | 18.45070 | -145.94459 | 39069 ft | 503 kts | 54° |
| 2026-04-23 16:03 | 18.48746 | -145.88183 | 39064 ft | 503 kts | 54° |
| 2026-04-23 16:04 | 18.52419 | -145.81906 | 39066 ft | 503 kts | 54° |
| 2026-04-23 16:04 | 18.56069 | -145.75662 | 39071 ft | 504 kts | 54° |
| 2026-04-23 16:05 | 18.59146 | -145.70393 | 39070 ft | 504 kts | 54° |
| 2026-04-23 16:05 | 18.63411 | -145.63083 | 39070 ft | 504 kts | 54° |
| 2026-04-23 16:06 | 18.67081 | -145.56786 | 39072 ft | 504 kts | 54° |
| 2026-04-23 16:06 | 18.70729 | -145.50522 | 39075 ft | 505 kts | 54° |
| 2026-04-23 16:07 | 18.74399 | -145.44211 | 39071 ft | 505 kts | 54° |
| 2026-04-23 16:07 | 18.78072 | -145.37891 | 39069 ft | 505 kts | 54° |
| 2026-04-23 16:08 | 18.81741 | -145.31570 | 39077 ft | 505 kts | 54° |
| 2026-04-23 16:08 | 18.85410 | -145.25241 | 39078 ft | 506 kts | 54° |
| 2026-04-23 16:09 | 18.89056 | -145.18947 | 39074 ft | 506 kts | 54° |
| 2026-04-23 16:09 | 18.92725 | -145.12608 | 39077 ft | 506 kts | 54° |
| 2026-04-23 16:10 | 18.96389 | -145.06270 | 39073 ft | 506 kts | 54° |
| 2026-04-23 16:10 | 19.00036 | -144.99956 | 39174 ft | 507 kts | 54° |
| 2026-04-23 16:10 | 19.01899 | -144.96800 | 39389 ft | 505 kts | 52° |
| 2026-04-23 16:11 | 19.03820 | -144.93702 | 39611 ft | 503 kts | 51° |
| 2026-04-23 16:11 | 19.05765 | -144.90633 | 39818 ft | 502 kts | 51° |
| 2026-04-23 16:11 | 19.07716 | -144.87571 | 40007 ft | 502 kts | 51° |
| 2026-04-23 16:11 | 19.09659 | -144.84511 | 40194 ft | 501 kts | 51° |
| 2026-04-23 16:12 | 19.11594 | -144.81444 | 40366 ft | 501 kts | 51° |
| 2026-04-23 16:12 | 19.13518 | -144.78377 | 40538 ft | 501 kts | 51° |
| 2026-04-23 16:12 | 19.15434 | -144.75309 | 40704 ft | 500 kts | 51° |
| 2026-04-23 16:12 | 19.17326 | -144.72274 | 40859 ft | 500 kts | 51° |
| 2026-04-23 16:13 | 19.19237 | -144.69202 | 41017 ft | 500 kts | 51° |
| 2026-04-23 16:13 | 19.24975 | -144.59977 | 41079 ft | 500 kts | 51° |
| 2026-04-23 16:14 | 19.28795 | -144.53829 | 41079 ft | 500 kts | 51° |
| 2026-04-23 16:14 | 19.32588 | -144.47720 | 41082 ft | 500 kts | 51° |
| 2026-04-23 16:15 | 19.36411 | -144.41557 | 41084 ft | 501 kts | 51° |
| 2026-04-23 16:15 | 19.40232 | -144.35389 | 41086 ft | 501 kts | 51° |
| 2026-04-23 16:16 | 19.44051 | -144.29218 | 41085 ft | 501 kts | 51° |
| 2026-04-23 16:16 | 19.47844 | -144.23084 | 41085 ft | 501 kts | 51° |
| 2026-04-23 16:17 | 19.51661 | -144.16904 | 41088 ft | 501 kts | 51° |
| 2026-04-23 16:17 | 19.55478 | -144.10718 | 41084 ft | 501 kts | 51° |
| 2026-04-23 16:18 | 19.59291 | -144.04532 | 41081 ft | 501 kts | 51° |
| 2026-04-23 16:18 | 19.63104 | -143.98341 | 41086 ft | 501 kts | 52° |
| 2026-04-23 16:19 | 19.66890 | -143.92186 | 41087 ft | 501 kts | 52° |
| 2026-04-23 16:19 | 19.70698 | -143.85990 | 41088 ft | 501 kts | 52° |
| 2026-04-23 16:20 | 19.74508 | -143.79783 | 41090 ft | 502 kts | 52° |
| 2026-04-23 16:20 | 19.78289 | -143.73618 | 41092 ft | 502 kts | 52° |
| 2026-04-23 16:21 | 19.82091 | -143.67412 | 41091 ft | 502 kts | 52° |
| 2026-04-23 16:21 | 19.85894 | -143.61198 | 41090 ft | 502 kts | 52° |
| 2026-04-23 16:22 | 19.89696 | -143.54978 | 41090 ft | 502 kts | 52° |
| 2026-04-23 16:22 | 19.93498 | -143.48753 | 41093 ft | 502 kts | 52° |
| 2026-04-23 16:23 | 19.97271 | -143.42567 | 41092 ft | 502 kts | 52° |
| 2026-04-23 16:23 | 20.01066 | -143.36341 | 41091 ft | 502 kts | 52° |
| 2026-04-23 16:24 | 20.04863 | -143.30104 | 41093 ft | 502 kts | 52° |
| 2026-04-23 16:24 | 20.08656 | -143.23866 | 41094 ft | 502 kts | 52° |
| 2026-04-23 16:25 | 20.12423 | -143.17665 | 41092 ft | 502 kts | 52° |
| 2026-04-23 16:25 | 20.16210 | -143.11424 | 41095 ft | 502 kts | 52° |
| 2026-04-23 16:26 | 20.19998 | -143.05175 | 41094 ft | 502 kts | 52° |
| 2026-04-23 16:26 | 20.23783 | -142.98925 | 41097 ft | 502 kts | 52° |
| 2026-04-23 16:27 | 20.27537 | -142.92719 | 41098 ft | 502 kts | 52° |
| 2026-04-23 16:27 | 20.31317 | -142.86462 | 41095 ft | 502 kts | 52° |
| 2026-04-23 16:28 | 20.35091 | -142.80210 | 41102 ft | 502 kts | 52° |
| 2026-04-23 16:28 | 20.38864 | -142.73953 | 41089 ft | 502 kts | 52° |
| 2026-04-23 16:29 | 20.42610 | -142.67734 | 41095 ft | 502 kts | 52° |
| 2026-04-23 16:29 | 20.46379 | -142.61469 | 41093 ft | 502 kts | 52° |
| 2026-04-23 16:30 | 20.50140 | -142.55210 | 41115 ft | 501 kts | 52° |
| 2026-04-23 16:30 | 20.53877 | -142.48986 | 41103 ft | 501 kts | 52° |
| 2026-04-23 16:31 | 20.57638 | -142.42714 | 41103 ft | 502 kts | 52° |
| 2026-04-23 16:31 | 20.61396 | -142.36441 | 41104 ft | 502 kts | 52° |
| 2026-04-23 16:32 | 20.65150 | -142.30167 | 41103 ft | 502 kts | 52° |
| 2026-04-23 16:32 | 20.68878 | -142.23930 | 41105 ft | 502 kts | 52° |
| 2026-04-23 16:33 | 20.72632 | -142.17643 | 41105 ft | 502 kts | 52° |
| 2026-04-23 16:33 | 20.76381 | -142.11358 | 41106 ft | 502 kts | 52° |
| 2026-04-23 16:34 | 20.80131 | -142.05063 | 41109 ft | 502 kts | 52° |
| 2026-04-23 16:34 | 20.83851 | -141.98812 | 41109 ft | 502 kts | 52° |
| 2026-04-23 16:35 | 20.87593 | -141.92517 | 41104 ft | 502 kts | 52° |
| 2026-04-23 16:35 | 20.91334 | -141.86217 | 41113 ft | 502 kts | 52° |
| 2026-04-23 16:36 | 20.95073 | -141.79912 | 41114 ft | 502 kts | 53° |
| 2026-04-23 16:36 | 20.98780 | -141.73654 | 41107 ft | 501 kts | 53° |
| 2026-04-23 16:37 | 21.02511 | -141.67349 | 41112 ft | 501 kts | 53° |
| 2026-04-23 16:37 | 21.06240 | -141.61042 | 41113 ft | 501 kts | 53° |
| 2026-04-23 16:38 | 21.09967 | -141.54730 | 41113 ft | 501 kts | 53° |
| 2026-04-23 16:38 | 21.13664 | -141.48461 | 41117 ft | 501 kts | 53° |
| 2026-04-23 16:39 | 21.17387 | -141.42141 | 41117 ft | 502 kts | 53° |
| 2026-04-23 16:39 | 21.21109 | -141.35817 | 41116 ft | 502 kts | 53° |
| 2026-04-23 16:40 | 21.22967 | -141.32656 | 40999 ft | 501 kts | 53° |
| 2026-04-23 16:40 | 21.24824 | -141.29495 | 41113 ft | 503 kts | 53° |
| 2026-04-23 16:40 | 21.28552 | -141.23154 | 41118 ft | 509 kts | 53° |
| 2026-04-23 16:41 | 21.32333 | -141.16709 | 41123 ft | 510 kts | 53° |
| 2026-04-23 16:41 | 21.36105 | -141.10265 | 41119 ft | 510 kts | 53° |
| 2026-04-23 16:42 | 21.39875 | -141.03819 | 41121 ft | 510 kts | 53° |
| 2026-04-23 16:42 | 21.43624 | -140.97403 | 41126 ft | 510 kts | 53° |
| 2026-04-23 16:43 | 21.47391 | -140.90950 | 41121 ft | 511 kts | 53° |
| 2026-04-23 16:43 | 21.51161 | -140.84485 | 41121 ft | 511 kts | 53° |
| 2026-04-23 16:44 | 21.54906 | -140.78052 | 41117 ft | 511 kts | 53° |
| 2026-04-23 16:44 | 21.58673 | -140.71576 | 41129 ft | 511 kts | 53° |
| 2026-04-23 16:45 | 21.62442 | -140.65090 | 41124 ft | 511 kts | 53° |
| 2026-04-23 16:45 | 21.66205 | -140.58604 | 41130 ft | 512 kts | 53° |
| 2026-04-23 16:46 | 21.69971 | -140.52107 | 41136 ft | 512 kts | 53° |
| 2026-04-23 16:46 | 21.73705 | -140.45656 | 41121 ft | 512 kts | 53° |
| 2026-04-23 16:47 | 21.77469 | -140.39148 | 41123 ft | 512 kts | 53° |
| 2026-04-23 16:47 | 21.81230 | -140.32635 | 41130 ft | 512 kts | 53° |
| 2026-04-23 16:48 | 21.84991 | -140.26114 | 41129 ft | 513 kts | 53° |
| 2026-04-23 16:48 | 21.88725 | -140.19634 | 41127 ft | 513 kts | 53° |
| 2026-04-23 16:49 | 21.92483 | -140.13102 | 41130 ft | 513 kts | 53° |
| 2026-04-23 16:49 | 21.96239 | -140.06566 | 41131 ft | 513 kts | 53° |
| 2026-04-23 16:50 | 21.99995 | -140.00023 | 41135 ft | 514 kts | 54° |
| 2026-04-23 16:50 | 22.03865 | -139.93627 | 41134 ft | 512 kts | 51° |
| 2026-04-23 16:51 | 22.07907 | -139.87321 | 41132 ft | 512 kts | 51° |
| 2026-04-23 16:51 | 22.11948 | -139.80983 | 41136 ft | 512 kts | 51° |
| 2026-04-23 16:52 | 22.15951 | -139.74624 | 41136 ft | 513 kts | 51° |
| 2026-04-23 16:52 | 22.19919 | -139.68286 | 41135 ft | 513 kts | 51° |
| 2026-04-23 16:53 | 22.23907 | -139.61904 | 41137 ft | 513 kts | 51° |
| 2026-04-23 16:53 | 22.27899 | -139.55511 | 41137 ft | 513 kts | 51° |
| 2026-04-23 16:54 | 22.31890 | -139.49114 | 41136 ft | 513 kts | 51° |
| 2026-04-23 16:54 | 22.35849 | -139.42762 | 41141 ft | 514 kts | 51° |
| 2026-04-23 16:55 | 22.39839 | -139.36351 | 41143 ft | 514 kts | 51° |
| 2026-04-23 16:55 | 22.43823 | -139.29942 | 41140 ft | 514 kts | 52° |
| 2026-04-23 16:56 | 22.47810 | -139.23521 | 41144 ft | 514 kts | 52° |
| 2026-04-23 16:56 | 22.51773 | -139.17130 | 41147 ft | 515 kts | 52° |
| 2026-04-23 16:57 | 22.55758 | -139.10698 | 41146 ft | 515 kts | 52° |
| 2026-04-23 16:57 | 22.59738 | -139.04263 | 41144 ft | 515 kts | 52° |
| 2026-04-23 16:58 | 22.63700 | -138.97852 | 41144 ft | 515 kts | 52° |
| 2026-04-23 16:58 | 22.67680 | -138.91402 | 41145 ft | 516 kts | 52° |
| 2026-04-23 16:59 | 22.71663 | -138.84940 | 41149 ft | 516 kts | 52° |
| 2026-04-23 16:59 | 22.75639 | -138.78481 | 41148 ft | 516 kts | 52° |
| 2026-04-23 17:00 | 22.79623 | -138.72002 | 41152 ft | 516 kts | 52° |
| 2026-04-23 17:00 | 22.83578 | -138.65562 | 41153 ft | 516 kts | 52° |
| 2026-04-23 17:01 | 22.87551 | -138.59084 | 41152 ft | 517 kts | 52° |
| 2026-04-23 17:01 | 22.91533 | -138.52584 | 41150 ft | 517 kts | 52° |
| 2026-04-23 17:02 | 22.95507 | -138.46088 | 41153 ft | 517 kts | 52° |
| 2026-04-23 17:02 | 22.99453 | -138.39632 | 41151 ft | 517 kts | 52° |
| 2026-04-23 17:03 | 23.03429 | -138.33116 | 41153 ft | 517 kts | 52° |
| 2026-04-23 17:03 | 23.07397 | -138.26605 | 41154 ft | 517 kts | 52° |
| 2026-04-23 17:04 | 23.11366 | -138.20086 | 41155 ft | 518 kts | 52° |
| 2026-04-23 17:04 | 23.15308 | -138.13603 | 41149 ft | 518 kts | 53° |
| 2026-04-23 17:05 | 23.19266 | -138.07085 | 41162 ft | 518 kts | 53° |
| 2026-04-23 17:05 | 23.23238 | -138.00535 | 41154 ft | 518 kts | 53° |
| 2026-04-23 17:06 | 23.27198 | -137.93996 | 41157 ft | 518 kts | 53° |
| 2026-04-23 17:06 | 23.31159 | -137.87448 | 41156 ft | 518 kts | 53° |
| 2026-04-23 17:07 | 23.35089 | -137.80943 | 41163 ft | 518 kts | 53° |
| 2026-04-23 17:07 | 23.39048 | -137.74382 | 41162 ft | 518 kts | 53° |
| 2026-04-23 17:08 | 23.43001 | -137.67821 | 41163 ft | 519 kts | 53° |
| 2026-04-23 17:08 | 23.46955 | -137.61251 | 41161 ft | 519 kts | 53° |
| 2026-04-23 17:09 | 23.50887 | -137.54708 | 41168 ft | 519 kts | 53° |
| 2026-04-23 17:09 | 23.54839 | -137.48126 | 41166 ft | 519 kts | 53° |
| 2026-04-23 17:10 | 23.58791 | -137.41533 | 41169 ft | 520 kts | 53° |
| 2026-04-23 17:10 | 23.62741 | -137.34935 | 41169 ft | 520 kts | 54° |
| 2026-04-23 17:11 | 23.66698 | -137.28316 | 41169 ft | 520 kts | 54° |
| 2026-04-23 17:11 | 23.70619 | -137.21750 | 41172 ft | 521 kts | 54° |
| 2026-04-23 17:12 | 23.74572 | -137.15121 | 41172 ft | 521 kts | 54° |
| 2026-04-23 17:12 | 23.78525 | -137.08484 | 41169 ft | 521 kts | 54° |
| 2026-04-23 17:13 | 23.82471 | -137.01849 | 41173 ft | 521 kts | 54° |
| 2026-04-23 17:13 | 23.86391 | -136.95249 | 41182 ft | 522 kts | 54° |
| 2026-04-23 17:14 | 23.90336 | -136.88598 | 41183 ft | 522 kts | 54° |
| 2026-04-23 17:14 | 23.94282 | -136.81937 | 41184 ft | 521 kts | 54° |
| 2026-04-23 17:15 | 23.98193 | -136.75326 | 41186 ft | 522 kts | 54° |
| 2026-04-23 17:15 | 24.02126 | -136.68669 | 41184 ft | 522 kts | 54° |
| 2026-04-23 17:16 | 24.06067 | -136.61989 | 41187 ft | 522 kts | 54° |
| 2026-04-23 17:16 | 24.10000 | -136.55314 | 41189 ft | 522 kts | 55° |
| 2026-04-23 17:17 | 24.13904 | -136.48680 | 41190 ft | 522 kts | 55° |
| 2026-04-23 17:17 | 24.17838 | -136.41985 | 41194 ft | 522 kts | 55° |
| 2026-04-23 17:18 | 24.23724 | -136.31953 | 41194 ft | 523 kts | 55° |
| 2026-04-23 17:19 | 24.27631 | -136.25280 | 41196 ft | 523 kts | 55° |
| 2026-04-23 17:19 | 24.31555 | -136.18570 | 41194 ft | 523 kts | 55° |
| 2026-04-23 17:20 | 24.35479 | -136.11852 | 41196 ft | 523 kts | 55° |
| 2026-04-23 17:21 | 24.43300 | -135.98433 | 41199 ft | 524 kts | 55° |
| 2026-04-23 17:21 | 24.49181 | -135.88318 | 41199 ft | 524 kts | 56° |
| 2026-04-23 17:22 | 24.55053 | -135.78197 | 41201 ft | 524 kts | 56° |
| 2026-04-23 17:23 | 24.60898 | -135.68103 | 41204 ft | 524 kts | 56° |
| 2026-04-23 17:24 | 24.66764 | -135.57950 | 41203 ft | 525 kts | 56° |
| 2026-04-23 17:24 | 24.72595 | -135.47837 | 41208 ft | 525 kts | 56° |
| 2026-04-23 17:25 | 24.78455 | -135.37654 | 41209 ft | 525 kts | 56° |
| 2026-04-23 17:26 | 24.86238 | -135.24092 | 41210 ft | 526 kts | 56° |
| 2026-04-23 17:27 | 24.92090 | -135.13872 | 41210 ft | 526 kts | 56° |
| 2026-04-23 17:27 | 24.95985 | -135.07056 | 41211 ft | 526 kts | 56° |
| 2026-04-23 17:28 | 24.99883 | -135.00227 | 41212 ft | 526 kts | 56° |
| 2026-04-23 17:28 | 25.03907 | -134.93555 | 41213 ft | 526 kts | 53° |
| 2026-04-23 17:29 | 25.08144 | -134.86994 | 41208 ft | 526 kts | 52° |
| 2026-04-23 17:30 | 25.13766 | -134.78222 | 41213 ft | 526 kts | 53° |
| 2026-04-23 17:30 | 25.20715 | -134.67195 | 41212 ft | 526 kts | 53° |
| 2026-04-23 17:31 | 25.24891 | -134.60543 | 41209 ft | 527 kts | 53° |
| 2026-04-23 17:31 | 25.29061 | -134.53894 | 41210 ft | 527 kts | 53° |
| 2026-04-23 17:32 | 25.33207 | -134.47277 | 41218 ft | 527 kts | 53° |
| 2026-04-23 17:32 | 25.37378 | -134.40610 | 41203 ft | 527 kts | 53° |
| 2026-04-23 17:33 | 25.41548 | -134.33937 | 41222 ft | 528 kts | 54° |
| 2026-04-23 17:33 | 25.45719 | -134.27253 | 41216 ft | 528 kts | 54° |
| 2026-04-23 17:34 | 25.49857 | -134.20611 | 41218 ft | 528 kts | 54° |
| 2026-04-23 17:35 | 25.56107 | -134.10561 | 41222 ft | 528 kts | 54° |
| 2026-04-23 17:35 | 25.62354 | -134.00496 | 41221 ft | 529 kts | 54° |
| 2026-04-23 17:36 | 25.66491 | -133.93816 | 41218 ft | 529 kts | 54° |
| 2026-04-23 17:36 | 25.70652 | -133.87091 | 41219 ft | 529 kts | 54° |
| 2026-04-23 17:37 | 25.74813 | -133.80354 | 41218 ft | 529 kts | 54° |
| 2026-04-23 17:38 | 25.81048 | -133.70243 | 41220 ft | 530 kts | 54° |
| 2026-04-23 17:38 | 25.85174 | -133.63539 | 41217 ft | 530 kts | 54° |
| 2026-04-23 17:39 | 25.89330 | -133.56777 | 41214 ft | 530 kts | 54° |
| 2026-04-23 17:39 | 25.93484 | -133.50008 | 41222 ft | 530 kts | 54° |
| 2026-04-23 17:40 | 25.97611 | -133.43275 | 41219 ft | 531 kts | 54° |
| 2026-04-23 17:40 | 26.01760 | -133.36493 | 41221 ft | 531 kts | 54° |
| 2026-04-23 17:41 | 26.05915 | -133.29694 | 41220 ft | 531 kts | 54° |
| 2026-04-23 17:41 | 26.12140 | -133.19486 | 41221 ft | 532 kts | 54° |
| 2026-04-23 17:42 | 26.18337 | -133.09303 | 41220 ft | 532 kts | 55° |
| 2026-04-23 17:43 | 26.22485 | -133.02473 | 41221 ft | 533 kts | 55° |
| 2026-04-23 17:43 | 26.26632 | -132.95635 | 41221 ft | 533 kts | 55° |
| 2026-04-23 17:44 | 26.30781 | -132.88786 | 41221 ft | 533 kts | 55° |
| 2026-04-23 17:44 | 26.36971 | -132.78544 | 41221 ft | 534 kts | 55° |
| 2026-04-23 17:45 | 26.43185 | -132.68240 | 41220 ft | 534 kts | 55° |
| 2026-04-23 17:46 | 26.49375 | -132.57953 | 41220 ft | 535 kts | 55° |
| 2026-04-23 17:46 | 26.53523 | -132.51047 | 41229 ft | 535 kts | 55° |
| 2026-04-23 17:47 | 26.57667 | -132.44137 | 41228 ft | 536 kts | 55° |
| 2026-04-23 17:48 | 26.63859 | -132.33792 | 41227 ft | 536 kts | 55° |
| 2026-04-23 17:48 | 26.68003 | -132.26854 | 41234 ft | 537 kts | 56° |
| 2026-04-23 17:49 | 26.72147 | -132.19908 | 41225 ft | 537 kts | 56° |
| 2026-04-23 17:49 | 26.75595 | -132.14119 | 41232 ft | 538 kts | 56° |
| 2026-04-23 17:50 | 26.80412 | -132.06019 | 41228 ft | 538 kts | 56° |
| 2026-04-23 17:50 | 26.85928 | -131.96726 | 41231 ft | 539 kts | 56° |
| 2026-04-23 17:51 | 26.90070 | -131.89734 | 41234 ft | 539 kts | 56° |
| 2026-04-23 17:52 | 26.96960 | -131.78081 | 41234 ft | 540 kts | 56° |
| 2026-04-23 17:52 | 27.03173 | -131.67546 | 41241 ft | 540 kts | 56° |
| 2026-04-23 17:53 | 27.09358 | -131.57034 | 41238 ft | 541 kts | 56° |
| 2026-04-23 17:54 | 27.13500 | -131.49981 | 41245 ft | 541 kts | 56° |
| 2026-04-23 17:54 | 27.19008 | -131.40583 | 41240 ft | 541 kts | 56° |
| 2026-04-23 17:55 | 27.25880 | -131.28831 | 41252 ft | 542 kts | 56° |
| 2026-04-23 17:56 | 27.30013 | -131.21747 | 41236 ft | 542 kts | 56° |
| 2026-04-23 17:56 | 27.35513 | -131.12304 | 41239 ft | 542 kts | 56° |
| 2026-04-23 17:57 | 27.40317 | -131.04039 | 41239 ft | 543 kts | 56° |
| 2026-04-23 17:58 | 27.45815 | -130.94561 | 41242 ft | 543 kts | 56° |
| 2026-04-23 17:58 | 27.49942 | -130.87431 | 41240 ft | 544 kts | 56° |
| 2026-04-23 17:59 | 27.54073 | -130.80284 | 41243 ft | 544 kts | 56° |
| 2026-04-23 17:59 | 27.58205 | -130.73123 | 41246 ft | 545 kts | 56° |
| 2026-04-23 18:00 | 27.62302 | -130.66010 | 41245 ft | 545 kts | 56° |
| 2026-04-23 18:00 | 27.66434 | -130.58826 | 41247 ft | 546 kts | 57° |
| 2026-04-23 18:01 | 27.70561 | -130.51639 | 41249 ft | 546 kts | 57° |
| 2026-04-23 18:01 | 27.74690 | -130.44436 | 41248 ft | 547 kts | 57° |
| 2026-04-23 18:02 | 27.78816 | -130.37226 | 41248 ft | 547 kts | 57° |
| 2026-04-23 18:02 | 27.82916 | -130.30049 | 41248 ft | 547 kts | 57° |
| 2026-04-23 18:03 | 27.87039 | -130.22821 | 41248 ft | 548 kts | 57° |
| 2026-04-23 18:03 | 27.91164 | -130.15578 | 41244 ft | 548 kts | 57° |
| 2026-04-23 18:04 | 27.95291 | -130.08319 | 41250 ft | 549 kts | 57° |
| 2026-04-23 18:04 | 27.99363 | -130.01081 | 41249 ft | 549 kts | 60° |
| 2026-04-23 18:05 | 28.02852 | -129.93393 | 41250 ft | 549 kts | 64° |
| 2026-04-23 18:05 | 28.06175 | -129.85600 | 41250 ft | 550 kts | 65° |
| 2026-04-23 18:06 | 28.09467 | -129.77788 | 41249 ft | 550 kts | 65° |
| 2026-04-23 18:06 | 28.12743 | -129.70025 | 41246 ft | 550 kts | 65° |
| 2026-04-23 18:07 | 28.16050 | -129.62196 | 41251 ft | 551 kts | 65° |
| 2026-04-23 18:07 | 28.19354 | -129.54367 | 41251 ft | 551 kts | 65° |
| 2026-04-23 18:08 | 28.22635 | -129.46578 | 41253 ft | 551 kts | 65° |
| 2026-04-23 18:08 | 28.25936 | -129.38725 | 41250 ft | 551 kts | 65° |
| 2026-04-23 18:09 | 28.29231 | -129.30870 | 41250 ft | 551 kts | 65° |
| 2026-04-23 18:09 | 28.32521 | -129.23010 | 41253 ft | 552 kts | 65° |
| 2026-04-23 18:10 | 28.35789 | -129.15188 | 41254 ft | 552 kts | 65° |
| 2026-04-23 18:10 | 28.39075 | -129.07305 | 41247 ft | 552 kts | 65° |
| 2026-04-23 18:11 | 28.42359 | -128.99415 | 41247 ft | 553 kts | 65° |
| 2026-04-23 18:11 | 28.45637 | -128.91520 | 41250 ft | 553 kts | 65° |
| 2026-04-23 18:12 | 28.48894 | -128.83662 | 41247 ft | 553 kts | 65° |
| 2026-04-23 18:12 | 28.52169 | -128.75745 | 41251 ft | 553 kts | 65° |
| 2026-04-23 18:13 | 28.55440 | -128.67820 | 41252 ft | 554 kts | 65° |
| 2026-04-23 18:13 | 28.58709 | -128.59885 | 41253 ft | 554 kts | 65° |
| 2026-04-23 18:14 | 28.61954 | -128.51990 | 41253 ft | 554 kts | 65° |
| 2026-04-23 18:14 | 28.65219 | -128.44032 | 41257 ft | 555 kts | 65° |
| 2026-04-23 18:15 | 28.68480 | -128.36067 | 41254 ft | 555 kts | 65° |
| 2026-04-23 18:15 | 28.71738 | -128.28095 | 41253 ft | 556 kts | 65° |
| 2026-04-23 18:16 | 28.74972 | -128.20162 | 41254 ft | 556 kts | 65° |
| 2026-04-23 18:16 | 28.78228 | -128.12161 | 41255 ft | 556 kts | 65° |
| 2026-04-23 18:17 | 28.83106 | -128.00142 | 41253 ft | 557 kts | 65° |
| 2026-04-23 18:17 | 28.86331 | -127.92174 | 41256 ft | 557 kts | 65° |
| 2026-04-23 18:18 | 28.89577 | -127.84140 | 41254 ft | 558 kts | 65° |
| 2026-04-23 18:18 | 28.92820 | -127.76096 | 41252 ft | 558 kts | 65° |
| 2026-04-23 18:19 | 28.96056 | -127.68050 | 41254 ft | 558 kts | 65° |
| 2026-04-23 18:19 | 28.99292 | -127.59989 | 41256 ft | 558 kts | 65° |
| 2026-04-23 18:20 | 29.02499 | -127.51983 | 41256 ft | 558 kts | 65° |
| 2026-04-23 18:20 | 29.05727 | -127.43908 | 41251 ft | 558 kts | 65° |
| 2026-04-23 18:21 | 29.08948 | -127.35834 | 41252 ft | 559 kts | 66° |
| 2026-04-23 18:21 | 29.12148 | -127.27793 | 41250 ft | 559 kts | 66° |
| 2026-04-23 18:22 | 29.15364 | -127.19697 | 41248 ft | 559 kts | 66° |
| 2026-04-23 18:22 | 29.18579 | -127.11585 | 41250 ft | 560 kts | 66° |
| 2026-04-23 18:23 | 29.23370 | -126.99464 | 41250 ft | 560 kts | 66° |
| 2026-04-23 18:24 | 29.28176 | -126.87267 | 41246 ft | 560 kts | 66° |
| 2026-04-23 18:25 | 29.32972 | -126.75055 | 41247 ft | 561 kts | 66° |
| 2026-04-23 18:25 | 29.36148 | -126.66947 | 41246 ft | 561 kts | 66° |
| 2026-04-23 18:26 | 29.39339 | -126.58781 | 41247 ft | 561 kts | 66° |
| 2026-04-23 18:26 | 29.42527 | -126.50606 | 41247 ft | 562 kts | 66° |
| 2026-04-23 18:27 | 29.45711 | -126.42423 | 41244 ft | 562 kts | 66° |
| 2026-04-23 18:27 | 29.48870 | -126.34285 | 41248 ft | 562 kts | 66° |
| 2026-04-23 18:28 | 29.52047 | -126.26086 | 41246 ft | 562 kts | 66° |
| 2026-04-23 18:28 | 29.55221 | -126.17875 | 41244 ft | 562 kts | 66° |
| 2026-04-23 18:29 | 29.58367 | -126.09718 | 41246 ft | 562 kts | 66° |
| 2026-04-23 18:29 | 29.61531 | -126.01495 | 41244 ft | 562 kts | 66° |
| 2026-04-23 18:30 | 29.64690 | -125.93269 | 41245 ft | 563 kts | 66° |
| 2026-04-23 18:30 | 29.67844 | -125.85037 | 41240 ft | 563 kts | 66° |
| 2026-04-23 18:31 | 29.70974 | -125.76848 | 41241 ft | 563 kts | 66° |
| 2026-04-23 18:31 | 29.74121 | -125.68597 | 41238 ft | 563 kts | 66° |
| 2026-04-23 18:32 | 29.77264 | -125.60336 | 41240 ft | 564 kts | 66° |
| 2026-04-23 18:32 | 29.80404 | -125.52066 | 41242 ft | 564 kts | 66° |
| 2026-04-23 18:33 | 29.83520 | -125.43843 | 41239 ft | 564 kts | 66° |
| 2026-04-23 18:33 | 29.86649 | -125.35563 | 41241 ft | 564 kts | 66° |
| 2026-04-23 18:34 | 29.89774 | -125.27277 | 41236 ft | 564 kts | 66° |
| 2026-04-23 18:34 | 29.92893 | -125.18987 | 41241 ft | 564 kts | 66° |
| 2026-04-23 18:35 | 29.95987 | -125.10744 | 41239 ft | 564 kts | 66° |
| 2026-04-23 18:35 | 29.99099 | -125.02437 | 41236 ft | 564 kts | 66° |
| 2026-04-23 18:36 | 30.02355 | -124.94202 | 41229 ft | 564 kts | 62° |
| 2026-04-23 18:36 | 30.06054 | -124.86216 | 41236 ft | 564 kts | 60° |
| 2026-04-23 18:37 | 30.09762 | -124.78302 | 41231 ft | 564 kts | 61° |
| 2026-04-23 18:37 | 30.13416 | -124.70291 | 41232 ft | 564 kts | 62° |
| 2026-04-23 18:38 | 30.17029 | -124.62241 | 41229 ft | 564 kts | 62° |
| 2026-04-23 18:38 | 30.20624 | -124.54194 | 41232 ft | 564 kts | 62° |
| 2026-04-23 18:39 | 30.24195 | -124.46191 | 41230 ft | 564 kts | 62° |
| 2026-04-23 18:39 | 30.27790 | -124.38128 | 41230 ft | 564 kts | 62° |
| 2026-04-23 18:40 | 30.31377 | -124.30067 | 41228 ft | 563 kts | 62° |
| 2026-04-23 18:40 | 30.34958 | -124.22000 | 41225 ft | 563 kts | 62° |
| 2026-04-23 18:41 | 30.38507 | -124.13990 | 41227 ft | 563 kts | 62° |
| 2026-04-23 18:41 | 30.42079 | -124.05912 | 41227 ft | 563 kts | 62° |
| 2026-04-23 18:42 | 30.45647 | -123.97823 | 41228 ft | 563 kts | 62° |
| 2026-04-23 18:42 | 30.49205 | -123.89741 | 41222 ft | 563 kts | 62° |
| 2026-04-23 18:43 | 30.52734 | -123.81709 | 41221 ft | 563 kts | 62° |
| 2026-04-23 18:43 | 30.56285 | -123.73607 | 41217 ft | 563 kts | 62° |
| 2026-04-23 18:44 | 30.59826 | -123.65512 | 41218 ft | 563 kts | 62° |
| 2026-04-23 18:44 | 30.63365 | -123.57404 | 41212 ft | 562 kts | 62° |
| 2026-04-23 18:45 | 30.66871 | -123.49354 | 41212 ft | 562 kts | 62° |
| 2026-04-23 18:45 | 30.70395 | -123.41245 | 41214 ft | 562 kts | 62° |
| 2026-04-23 18:46 | 30.73911 | -123.33140 | 41209 ft | 562 kts | 62° |
| 2026-04-23 18:46 | 30.77398 | -123.25080 | 41208 ft | 562 kts | 62° |
| 2026-04-23 18:47 | 30.80903 | -123.16963 | 41210 ft | 562 kts | 62° |
| 2026-04-23 18:47 | 30.84406 | -123.08835 | 41204 ft | 562 kts | 62° |
| 2026-04-23 18:48 | 30.87899 | -123.00708 | 41203 ft | 561 kts | 62° |
| 2026-04-23 18:48 | 30.91365 | -122.92630 | 41202 ft | 561 kts | 62° |
| 2026-04-23 18:49 | 30.94844 | -122.84502 | 41201 ft | 561 kts | 62° |
| 2026-04-23 18:49 | 30.98323 | -122.76358 | 41199 ft | 561 kts | 62° |
| 2026-04-23 18:50 | 31.01206 | -122.69594 | 41195 ft | 561 kts | 62° |
| 2026-04-23 18:50 | 31.05228 | -122.60138 | 41193 ft | 560 kts | 62° |
| 2026-04-23 18:51 | 31.08683 | -122.51994 | 41190 ft | 560 kts | 62° |
| 2026-04-23 18:51 | 31.12136 | -122.43838 | 41188 ft | 560 kts | 62° |
| 2026-04-23 18:52 | 31.15555 | -122.35745 | 41186 ft | 560 kts | 62° |
| 2026-04-23 18:52 | 31.18990 | -122.27597 | 41185 ft | 559 kts | 63° |
| 2026-04-23 18:53 | 31.22418 | -122.19446 | 41182 ft | 559 kts | 63° |
| 2026-04-23 18:53 | 31.25837 | -122.11298 | 41177 ft | 558 kts | 63° |
| 2026-04-23 18:54 | 31.29230 | -122.03196 | 41175 ft | 558 kts | 63° |
| 2026-04-23 18:54 | 31.32637 | -121.95040 | 41174 ft | 558 kts | 63° |
| 2026-04-23 18:55 | 31.36038 | -121.86881 | 41174 ft | 558 kts | 63° |
| 2026-04-23 18:55 | 31.39439 | -121.78705 | 41174 ft | 558 kts | 63° |
| 2026-04-23 18:56 | 31.42255 | -121.71919 | 41174 ft | 558 kts | 63° |
| 2026-04-23 18:56 | 31.46193 | -121.62410 | 41163 ft | 558 kts | 63° |
| 2026-04-23 18:57 | 31.49573 | -121.54228 | 41173 ft | 558 kts | 63° |
| 2026-04-23 18:57 | 31.52945 | -121.46048 | 41162 ft | 558 kts | 63° |
| 2026-04-23 18:58 | 31.56078 | -121.38432 | 41164 ft | 557 kts | 63° |
| 2026-04-23 23:33 | 31.56912 | -121.36383 | 41078 ft | 558 kts | 63° |
| 2026-04-23 23:34 | 31.60206 | -121.28152 | 41100 ft | 566 kts | 63° |
| 2026-04-23 23:34 | 31.63551 | -121.19764 | 41101 ft | 568 kts | 63° |
| 2026-04-23 23:35 | 31.66891 | -121.11376 | 41093 ft | 567 kts | 63° |
| 2026-04-23 23:35 | 31.69936 | -121.02834 | 41093 ft | 568 kts | 67° |
| 2026-04-23 23:36 | 31.72728 | -120.94230 | 41086 ft | 568 kts | 68° |
| 2026-04-23 23:36 | 31.75522 | -120.85556 | 41085 ft | 568 kts | 68° |
| 2026-04-23 23:37 | 31.78304 | -120.76886 | 41084 ft | 567 kts | 68° |
| 2026-04-23 23:37 | 31.81084 | -120.68200 | 41083 ft | 567 kts | 68° |
| 2026-04-23 23:38 | 31.83840 | -120.59568 | 41077 ft | 567 kts | 68° |
| 2026-04-23 23:38 | 31.86606 | -120.50877 | 41077 ft | 567 kts | 68° |
| 2026-04-23 23:39 | 31.89363 | -120.42192 | 41072 ft | 567 kts | 68° |
| 2026-04-23 23:39 | 31.92118 | -120.33491 | 41073 ft | 567 kts | 68° |
| 2026-04-23 23:40 | 31.95603 | -120.25334 | 41070 ft | 558 kts | 48° |
| 2026-04-23 23:40 | 32.00732 | -120.18578 | 41070 ft | 552 kts | 41° |
| 2026-04-23 23:41 | 32.05996 | -120.11982 | 41055 ft | 553 kts | 41° |
| 2026-04-23 23:41 | 32.11212 | -120.05403 | 41065 ft | 552 kts | 41° |
| 2026-04-23 23:42 | 32.16448 | -119.98777 | 41059 ft | 552 kts | 42° |
| 2026-04-23 23:42 | 32.21680 | -119.92140 | 40922 ft | 552 kts | 42° |
| 2026-04-23 23:42 | 32.24285 | -119.88831 | 40439 ft | 549 kts | 41° |
| 2026-04-23 23:43 | 32.26894 | -119.85515 | 39667 ft | 553 kts | 41° |
| 2026-04-23 23:43 | 32.29521 | -119.82174 | 38876 ft | 557 kts | 41° |
| 2026-04-23 23:43 | 32.32167 | -119.78805 | 38007 ft | 561 kts | 41° |
| 2026-04-23 23:43 | 32.34784 | -119.75469 | 37280 ft | 560 kts | 41° |
| 2026-04-23 23:44 | 32.37426 | -119.72095 | 36614 ft | 558 kts | 41° |
| 2026-04-23 23:44 | 32.40061 | -119.68728 | 35943 ft | 557 kts | 41° |
| 2026-04-23 23:44 | 32.42692 | -119.65366 | 35253 ft | 557 kts | 42° |
| 2026-04-23 23:44 | 32.45323 | -119.62000 | 34529 ft | 556 kts | 42° |
| 2026-04-23 23:45 | 32.47953 | -119.58634 | 33692 ft | 558 kts | 42° |
| 2026-04-23 23:45 | 32.50596 | -119.55252 | 32793 ft | 559 kts | 42° |
| 2026-04-23 23:45 | 32.53235 | -119.51866 | 31934 ft | 559 kts | 43° |
| 2026-04-23 23:45 | 32.55834 | -119.48525 | 31069 ft | 560 kts | 43° |
| 2026-04-23 23:46 | 32.58473 | -119.45131 | 30284 ft | 559 kts | 43° |
| 2026-04-23 23:46 | 32.61092 | -119.41758 | 29586 ft | 554 kts | 43° |
| 2026-04-23 23:46 | 32.63687 | -119.38411 | 28946 ft | 547 kts | 44° |
| 2026-04-23 23:46 | 32.66245 | -119.35111 | 28319 ft | 541 kts | 44° |
| 2026-04-23 23:47 | 32.68779 | -119.31839 | 27687 ft | 535 kts | 44° |
| 2026-04-23 23:47 | 32.71257 | -119.28638 | 27066 ft | 530 kts | 44° |
| 2026-04-23 23:47 | 32.73734 | -119.25437 | 26462 ft | 525 kts | 44° |
| 2026-04-23 23:47 | 32.76190 | -119.22258 | 25846 ft | 520 kts | 44° |
| 2026-04-23 23:48 | 32.78622 | -119.19109 | 25239 ft | 514 kts | 44° |
| 2026-04-23 23:48 | 32.81027 | -119.15992 | 24646 ft | 509 kts | 44° |
| 2026-04-23 23:48 | 32.83408 | -119.12903 | 24042 ft | 504 kts | 44° |
| 2026-04-23 23:48 | 32.85765 | -119.09843 | 23422 ft | 499 kts | 44° |
| 2026-04-23 23:49 | 32.90392 | -119.03827 | 22185 ft | 486 kts | 44° |
| 2026-04-23 23:49 | 32.92623 | -119.00922 | 21619 ft | 479 kts | 44° |
| 2026-04-23 23:49 | 32.94856 | -118.98012 | 21038 ft | 473 kts | 44° |
| 2026-04-23 23:50 | 32.97055 | -118.95146 | 20456 ft | 467 kts | 44° |
| 2026-04-23 23:50 | 32.99234 | -118.92303 | 19874 ft | 461 kts | 44° |
| 2026-04-23 23:50 | 33.01385 | -118.89495 | 19301 ft | 456 kts | 44° |
| 2026-04-23 23:50 | 33.03511 | -118.86717 | 18716 ft | 452 kts | 44° |
| 2026-04-23 23:51 | 33.05616 | -118.83964 | 18096 ft | 448 kts | 44° |
| 2026-04-23 23:51 | 33.07674 | -118.81272 | 17539 ft | 442 kts | 44° |
| 2026-04-23 23:51 | 33.09701 | -118.78613 | 17391 ft | 425 kts | 44° |
| 2026-04-23 23:51 | 33.11652 | -118.76051 | 17273 ft | 409 kts | 44° |
| 2026-04-23 23:52 | 33.13534 | -118.73580 | 17110 ft | 396 kts | 44° |
| 2026-04-23 23:52 | 33.15357 | -118.71186 | 16801 ft | 387 kts | 44° |
| 2026-04-23 23:52 | 33.17165 | -118.68816 | 16307 ft | 385 kts | 44° |
| 2026-04-23 23:52 | 33.18956 | -118.66465 | 15915 ft | 380 kts | 44° |
| 2026-04-23 23:53 | 33.20664 | -118.64122 | 15838 ft | 380 kts | 46° |
| 2026-04-23 23:53 | 33.22371 | -118.61701 | 15766 ft | 381 kts | 46° |
| 2026-04-23 23:53 | 33.24075 | -118.59285 | 15675 ft | 381 kts | 46° |
| 2026-04-23 23:53 | 33.25783 | -118.56871 | 15572 ft | 380 kts | 46° |
| 2026-04-23 23:54 | 33.27489 | -118.54464 | 15469 ft | 379 kts | 46° |
| 2026-04-23 23:54 | 33.29194 | -118.52062 | 15374 ft | 379 kts | 46° |
| 2026-04-23 23:54 | 33.30895 | -118.49666 | 15280 ft | 378 kts | 46° |
| 2026-04-23 23:54 | 33.32554 | -118.47282 | 15182 ft | 378 kts | 49° |
| 2026-04-23 23:55 | 33.33814 | -118.44515 | 15085 ft | 384 kts | 70° |
| 2026-04-23 23:55 | 33.34177 | -118.41366 | 14995 ft | 385 kts | 91° |
| 2026-04-23 23:55 | 33.34017 | -118.38171 | 14884 ft | 385 kts | 95° |
| 2026-04-23 23:55 | 33.33791 | -118.34983 | 14779 ft | 385 kts | 95° |
| 2026-04-23 23:56 | 33.33578 | -118.31797 | 14692 ft | 384 kts | 94° |
| 2026-04-23 23:56 | 33.33379 | -118.28621 | 14582 ft | 383 kts | 94° |
| 2026-04-23 23:56 | 33.33190 | -118.25454 | 14482 ft | 382 kts | 94° |
| 2026-04-23 23:56 | 33.33005 | -118.22289 | 14372 ft | 381 kts | 94° |
| 2026-04-23 23:57 | 33.32825 | -118.19170 | 14278 ft | 380 kts | 94° |
| 2026-04-23 23:57 | 33.32644 | -118.16020 | 14178 ft | 380 kts | 94° |
| 2026-04-23 23:57 | 33.32501 | -118.12872 | 14070 ft | 379 kts | 89° |
| 2026-04-23 23:57 | 33.32946 | -118.09800 | 13975 ft | 374 kts | 67° |
| 2026-04-23 23:58 | 33.34260 | -118.07171 | 13660 ft | 366 kts | 46° |
| 2026-04-23 23:58 | 33.36003 | -118.04974 | 13090 ft | 363 kts | 41° |
| 2026-04-23 23:58 | 33.37795 | -118.02857 | 12593 ft | 360 kts | 41° |
| 2026-04-23 23:58 | 33.39667 | -118.00932 | 12147 ft | 350 kts | 29° |
| 2026-04-23 23:59 | 33.41837 | -117.99879 | 11749 ft | 337 kts | 6° |
| 2026-04-23 23:59 | 33.44144 | -117.99747 | 11363 ft | 330 kts | 354° |
| 2026-04-23 23:59 | 33.46437 | -117.99879 | 10973 ft | 329 kts | 353° |
| 2026-04-23 23:59 | 33.48716 | -118.00020 | 10574 ft | 328 kts | 354° |
| 2026-04-24 00:00 | 33.50971 | -118.00145 | 10356 ft | 318 kts | 354° |
| 2026-04-24 00:00 | 33.53141 | -118.00256 | 10178 ft | 307 kts | 354° |
| 2026-04-24 00:00 | 33.55192 | -118.00357 | 9755 ft | 292 kts | 354° |
| 2026-04-24 00:00 | 33.57194 | -118.00457 | 9204 ft | 286 kts | 354° |
| 2026-04-24 00:01 | 33.59182 | -118.00560 | 8920 ft | 286 kts | 354° |
| 2026-04-24 00:01 | 33.61167 | -118.00659 | 8532 ft | 285 kts | 355° |
| 2026-04-24 00:01 | 33.63139 | -118.00744 | 8198 ft | 283 kts | 355° |
| 2026-04-24 00:01 | 33.65089 | -118.00952 | 7897 ft | 279 kts | 346° |
| 2026-04-24 00:02 | 33.66960 | -118.01529 | 7783 ft | 278 kts | 342° |
| 2026-04-24 00:02 | 33.68808 | -118.02176 | 7632 ft | 278 kts | 342° |
| 2026-04-24 00:02 | 33.70653 | -118.02821 | 7522 ft | 278 kts | 342° |
| 2026-04-24 00:02 | 33.72469 | -118.03451 | 7377 ft | 269 kts | 342° |
| 2026-04-24 00:03 | 33.74231 | -118.04061 | 7239 ft | 258 kts | 343° |
| 2026-04-24 00:03 | 33.75924 | -118.04645 | 7113 ft | 248 kts | 343° |
| 2026-04-24 00:03 | 33.77548 | -118.05207 | 6981 ft | 238 kts | 343° |
| 2026-04-24 00:03 | 33.79095 | -118.05842 | 6804 ft | 232 kts | 339° |
| 2026-04-24 00:04 | 33.80591 | -118.06550 | 6515 ft | 231 kts | 339° |
| 2026-04-24 00:04 | 33.82077 | -118.07267 | 6231 ft | 230 kts | 339° |
| 2026-04-24 00:04 | 33.83565 | -118.07983 | 5951 ft | 229 kts | 339° |
| 2026-04-24 00:04 | 33.85043 | -118.08692 | 5697 ft | 228 kts | 339° |
| 2026-04-24 00:05 | 33.86458 | -118.09462 | 5555 ft | 227 kts | 332° |
| 2026-04-24 00:05 | 33.87855 | -118.10401 | 5175 ft | 229 kts | 331° |
| 2026-04-24 00:05 | 33.89207 | -118.11346 | 4802 ft | 222 kts | 330° |
| 2026-04-24 00:05 | 33.90526 | -118.12282 | 4294 ft | 220 kts | 329° |
| 2026-04-24 00:06 | 33.91839 | -118.13220 | 3792 ft | 218 kts | 328° |
| 2026-04-24 00:06 | 33.93140 | -118.14155 | 3306 ft | 217 kts | 328° |
| 2026-04-24 00:06 | 33.94400 | -118.15081 | 3050 ft | 208 kts | 324° |
| 2026-04-24 00:06 | 33.95428 | -118.16293 | 2942 ft | 208 kts | 300° |
| 2026-04-24 00:07 | 33.95814 | -118.17899 | 2867 ft | 202 kts | 270° |
| 2026-04-24 00:07 | 33.95712 | -118.19583 | 2774 ft | 201 kts | 262° |
| 2026-04-24 00:07 | 33.95518 | -118.21257 | 2683 ft | 201 kts | 261° |
| 2026-04-24 00:07 | 33.95326 | -118.22918 | 2547 ft | 200 kts | 261° |
| 2026-04-24 00:08 | 33.95142 | -118.24566 | 2346 ft | 198 kts | 262° |
| 2026-04-24 00:08 | 33.94974 | -118.26205 | 2126 ft | 195 kts | 263° |
| 2026-04-24 00:08 | 33.94814 | -118.27801 | 1853 ft | 190 kts | 263° |
| 2026-04-24 00:08 | 33.94652 | -118.29355 | 1590 ft | 184 kts | 264° |
| 2026-04-24 00:09 | 33.94505 | -118.30818 | 1345 ft | 170 kts | 263° |
| 2026-04-24 00:09 | 33.94368 | -118.32145 | 1143 ft | 149 kts | 264° |
| 2026-04-24 00:09 | 33.94248 | -118.33322 | 939 ft | 133 kts | 263° |
| 2026-04-24 00:09 | 33.94138 | -118.34394 | 771 ft | 126 kts | 263° |
| 2026-04-24 00:10 | 33.94029 | -118.35436 | 600 ft | 126 kts | 265° |
| 2026-04-24 00:10 | 33.93921 | -118.36507 | 434 ft | 128 kts | 264° |
| 2026-04-24 00:10 | 33.93812 | -118.37567 | 261 ft | 127 kts | 261° |
| 2026-04-24 00:10 | 33.93703 | -118.38613 | 125 ft | 123 kts | 261° |
| 2026-04-24 00:11 | 33.93611 | -118.39509 | 113 ft | 82 kts | 263° |
| 2026-04-24 00:11 | 33.93571 | -118.39903 | 117 ft | 33 kts | 263° |
| 2026-04-24 00:11 | 33.93569 | -118.40160 | 117 ft | 30 kts | 278° |
| 2026-04-24 00:11 | 33.93602 | -118.40296 | 113 ft | 11 kts | 289° |
| 2026-04-24 00:12 | 33.93627 | -118.40400 | 112 ft | 14 kts | 277° |
| 2026-04-24 00:12 | 33.93618 | -118.40527 | 113 ft | 16 kts | 263° |
| 2026-04-24 00:12 | 33.93602 | -118.40668 | 112 ft | 18 kts | 263° |
| 2026-04-24 00:12 | 33.93587 | -118.40824 | 112 ft | 19 kts | 263° |
| 2026-04-24 00:13 | 33.93571 | -118.40986 | 113 ft | 20 kts | 263° |
| 2026-04-24 00:13 | 33.93553 | -118.41155 | 112 ft | 21 kts | 263° |
| 2026-04-24 00:13 | 33.93534 | -118.41334 | 113 ft | 22 kts | 263° |
| 2026-04-24 00:13 | 33.93515 | -118.41518 | 112 ft | 23 kts | 263° |
| 2026-04-24 00:14 | 33.93496 | -118.41710 | 113 ft | 24 kts | 263° |
| 2026-04-24 00:14 | 33.93509 | -118.41891 | 113 ft | 16 kts | 310° |
| 2026-04-24 00:14 | 33.93603 | -118.41926 | 115 ft | 15 kts | 349° |
| 2026-04-24 00:14 | 33.93678 | -118.41909 | 110 ft | 11 kts | 51° |
| 2026-04-24 00:15 | 33.93696 | -118.41833 | 110 ft | 0 kts | 84° |
| 2026-04-24 00:15 | 33.93698 | -118.41804 | 111 ft | 12 kts | 85° |
| 2026-04-24 00:15 | 33.93725 | -118.41689 | 109 ft | 10 kts | 35° |
| 2026-04-24 00:15 | 33.93805 | -118.41694 | 106 ft | 19 kts | 351° |
| 2026-04-24 00:16 | 33.93977 | -118.41721 | 103 ft | 27 kts | 353° |
| 2026-04-24 00:16 | 33.94081 | -118.41736 | 102 ft | 0 kts | 353° |
| 2026-04-24 00:16 | 33.94113 | -118.41741 | 103 ft | 12 kts | 353° |
| 2026-04-24 00:16 | 33.94207 | -118.41754 | 102 ft | 15 kts | 353° |
| 2026-04-24 00:17 | 33.94315 | -118.41767 | 101 ft | 10 kts | 6° |
| 2026-04-24 00:17 | 33.94352 | -118.41728 | 101 ft | 8 kts | 64° |
| 2026-04-24 00:17 | 33.94394 | -118.41684 | 104 ft | 9 kts | 20° |
| 2026-04-24 00:17 | 33.94449 | -118.41689 | 101 ft | 6 kts | 359° |
| 2026-04-24 00:18 | 33.94474 | -118.41660 | 102 ft | 6 kts | 66° |
| 2026-04-24 00:18 | 33.94480 | -118.41622 | 101 ft | 0 kts | 83° |
| 2026-04-24 00:18 | 33.94481 | -118.41619 | 101 ft | 2 kts | 83° |
| 2026-04-24 00:18 | 33.94482 | -118.41608 | 101 ft | 0 kts | 83° |